<?xml version="1.0" encoding="UTF-8" standalone="no" ?>
<gpx xmlns="http://www.topografix.com/GPX/1/1" creator="MapSource 6.11.6" version="1.1" xmlns:xsi="http://www.w3.org/2001/XMLSchema-instance" xsi:schemaLocation="http://www.topografix.com/GPX/1/1 http://www.topografix.com/GPX/1/1/gpx.xsd">

  <metadata>
    <link href="http://www.garmin.com">
      <text>Garmin International</text>
    </link>
    <time>2009-07-19T14:51:02Z</time>
    <bounds maxlat="50.682677" maxlon="6.204204" minlat="50.652982" minlon="6.164896"/>
  </metadata>

  <trk>
    <name>Roetgen - Vichtbach - Himmelsleiter RW</name>
    <extensions>
      <gpxx:TrackExtension xmlns:gpxx="http://www.garmin.com/xmlschemas/GpxExtensions/v3" xmlns:xsi="http://www.w3.org/2001/XMLSchema-instance" xsi:schemaLocation="http://www.garmin.com/xmlschemas/GpxExtensions/v3 http://www.garmin.com/xmlschemas/GpxExtensions/v3/GpxExtensionsv3.xsd">
        <gpxx:DisplayColor>White</gpxx:DisplayColor>
      </gpxx:TrackExtension>
    </extensions>
    <trkseg>
      <trkpt lat="50.682593" lon="6.180929">
        <ele>338.500000</ele>
        <time>2009-07-19T16:48:38Z</time>
      </trkpt>
      <trkpt lat="50.682478" lon="6.180791">
        <ele>339.000000</ele>
        <time>2009-07-19T16:48:52Z</time>
      </trkpt>
      <trkpt lat="50.682329" lon="6.180546">
        <ele>337.600000</ele>
        <time>2009-07-19T16:49:13Z</time>
      </trkpt>
      <trkpt lat="50.682299" lon="6.180246">
        <ele>336.100000</ele>
        <time>2009-07-19T16:49:33Z</time>
      </trkpt>
      <trkpt lat="50.682313" lon="6.180219">
        <ele>335.600000</ele>
        <time>2009-07-19T16:49:35Z</time>
      </trkpt>
      <trkpt lat="50.682198" lon="6.180127">
        <ele>334.700000</ele>
        <time>2009-07-19T16:49:48Z</time>
      </trkpt>
      <trkpt lat="50.682078" lon="6.179994">
        <ele>333.700000</ele>
        <time>2009-07-19T16:50:02Z</time>
      </trkpt>
      <trkpt lat="50.681973" lon="6.179773">
        <ele>332.800000</ele>
        <time>2009-07-19T16:50:20Z</time>
      </trkpt>
      <trkpt lat="50.681915" lon="6.179659">
        <ele>332.800000</ele>
        <time>2009-07-19T16:50:29Z</time>
      </trkpt>
      <trkpt lat="50.681901" lon="6.179639">
        <ele>332.300000</ele>
        <time>2009-07-19T16:50:31Z</time>
      </trkpt>
      <trkpt lat="50.681818" lon="6.179555">
        <ele>332.800000</ele>
        <time>2009-07-19T16:50:41Z</time>
      </trkpt>
      <trkpt lat="50.681659" lon="6.179445">
        <ele>332.300000</ele>
        <time>2009-07-19T16:50:58Z</time>
      </trkpt>
      <trkpt lat="50.681519" lon="6.179323">
        <ele>332.300000</ele>
        <time>2009-07-19T16:51:14Z</time>
      </trkpt>
      <trkpt lat="50.681374" lon="6.179175">
        <ele>332.300000</ele>
        <time>2009-07-19T16:51:31Z</time>
      </trkpt>
      <trkpt lat="50.681304" lon="6.179118">
        <ele>332.300000</ele>
        <time>2009-07-19T16:51:39Z</time>
      </trkpt>
      <trkpt lat="50.681290" lon="6.179078">
        <ele>331.800000</ele>
        <time>2009-07-19T16:51:42Z</time>
      </trkpt>
      <trkpt lat="50.681264" lon="6.179016">
        <ele>330.800000</ele>
        <time>2009-07-19T16:51:47Z</time>
      </trkpt>
      <trkpt lat="50.681226" lon="6.178725">
        <ele>329.900000</ele>
        <time>2009-07-19T16:52:05Z</time>
      </trkpt>
      <trkpt lat="50.681219" lon="6.178679">
        <ele>329.900000</ele>
        <time>2009-07-19T16:52:08Z</time>
      </trkpt>
      <trkpt lat="50.681202" lon="6.178395">
        <ele>328.900000</ele>
        <time>2009-07-19T16:52:26Z</time>
      </trkpt>
      <trkpt lat="50.681203" lon="6.178260">
        <ele>328.900000</ele>
        <time>2009-07-19T16:52:35Z</time>
      </trkpt>
      <trkpt lat="50.681196" lon="6.178013">
        <ele>328.400000</ele>
        <time>2009-07-19T16:52:51Z</time>
      </trkpt>
      <trkpt lat="50.681188" lon="6.177848">
        <ele>328.400000</ele>
        <time>2009-07-19T16:53:01Z</time>
      </trkpt>
      <trkpt lat="50.681266" lon="6.177614">
        <ele>327.000000</ele>
        <time>2009-07-19T16:53:18Z</time>
      </trkpt>
      <trkpt lat="50.681296" lon="6.177565">
        <ele>326.500000</ele>
        <time>2009-07-19T16:53:22Z</time>
      </trkpt>
      <trkpt lat="50.681404" lon="6.177432">
        <ele>326.500000</ele>
        <time>2009-07-19T16:53:36Z</time>
      </trkpt>
      <trkpt lat="50.681421" lon="6.177402">
        <ele>326.000000</ele>
        <time>2009-07-19T16:53:38Z</time>
      </trkpt>
      <trkpt lat="50.681447" lon="6.177372">
        <ele>325.500000</ele>
        <time>2009-07-19T16:53:41Z</time>
      </trkpt>
      <trkpt lat="50.681544" lon="6.177257">
        <ele>324.100000</ele>
        <time>2009-07-19T16:53:53Z</time>
      </trkpt>
      <trkpt lat="50.681637" lon="6.177013">
        <ele>322.700000</ele>
        <time>2009-07-19T16:54:11Z</time>
      </trkpt>
      <trkpt lat="50.681627" lon="6.176921">
        <ele>323.100000</ele>
        <time>2009-07-19T16:54:17Z</time>
      </trkpt>
      <trkpt lat="50.681613" lon="6.176788">
        <ele>322.200000</ele>
        <time>2009-07-19T16:54:26Z</time>
      </trkpt>
      <trkpt lat="50.681633" lon="6.176685">
        <ele>321.700000</ele>
        <time>2009-07-19T16:54:33Z</time>
      </trkpt>
      <trkpt lat="50.681668" lon="6.176487">
        <ele>320.300000</ele>
        <time>2009-07-19T16:54:46Z</time>
      </trkpt>
      <trkpt lat="50.681779" lon="6.176587">
        <ele>320.300000</ele>
        <time>2009-07-19T16:54:58Z</time>
      </trkpt>
      <trkpt lat="50.681766" lon="6.176580">
        <ele>320.300000</ele>
        <time>2009-07-19T16:55:00Z</time>
      </trkpt>
      <trkpt lat="50.681724" lon="6.176498">
        <ele>320.700000</ele>
        <time>2009-07-19T16:55:06Z</time>
      </trkpt>
      <trkpt lat="50.681748" lon="6.176393">
        <ele>320.300000</ele>
        <time>2009-07-19T16:55:14Z</time>
      </trkpt>
      <trkpt lat="50.681693" lon="6.176355">
        <ele>320.300000</ele>
        <time>2009-07-19T16:55:19Z</time>
      </trkpt>
      <trkpt lat="50.681633" lon="6.176196">
        <ele>319.800000</ele>
        <time>2009-07-19T16:55:31Z</time>
      </trkpt>
      <trkpt lat="50.681598" lon="6.176065">
        <ele>319.800000</ele>
        <time>2009-07-19T16:55:40Z</time>
      </trkpt>
      <trkpt lat="50.681579" lon="6.176014">
        <ele>319.300000</ele>
        <time>2009-07-19T16:55:44Z</time>
      </trkpt>
      <trkpt lat="50.681561" lon="6.175938">
        <ele>319.300000</ele>
        <time>2009-07-19T16:55:49Z</time>
      </trkpt>
      <trkpt lat="50.681537" lon="6.175903">
        <ele>318.800000</ele>
        <time>2009-07-19T16:55:52Z</time>
      </trkpt>
      <trkpt lat="50.681514" lon="6.175778">
        <ele>318.300000</ele>
        <time>2009-07-19T16:56:00Z</time>
      </trkpt>
      <trkpt lat="50.681461" lon="6.175606">
        <ele>316.900000</ele>
        <time>2009-07-19T16:56:13Z</time>
      </trkpt>
      <trkpt lat="50.681417" lon="6.175514">
        <ele>317.400000</ele>
        <time>2009-07-19T16:56:20Z</time>
      </trkpt>
      <trkpt lat="50.681368" lon="6.175450">
        <ele>317.900000</ele>
        <time>2009-07-19T16:56:26Z</time>
      </trkpt>
      <trkpt lat="50.681268" lon="6.175319">
        <ele>316.900000</ele>
        <time>2009-07-19T16:56:39Z</time>
      </trkpt>
      <trkpt lat="50.681140" lon="6.175237">
        <ele>315.900000</ele>
        <time>2009-07-19T16:56:53Z</time>
      </trkpt>
      <trkpt lat="50.681048" lon="6.175157">
        <ele>315.500000</ele>
        <time>2009-07-19T16:57:03Z</time>
      </trkpt>
      <trkpt lat="50.680985" lon="6.175109">
        <ele>314.000000</ele>
        <time>2009-07-19T16:57:10Z</time>
      </trkpt>
      <trkpt lat="50.680892" lon="6.175078">
        <ele>313.000000</ele>
        <time>2009-07-19T16:57:20Z</time>
      </trkpt>
      <trkpt lat="50.680811" lon="6.174964">
        <ele>311.600000</ele>
        <time>2009-07-19T16:57:31Z</time>
      </trkpt>
      <trkpt lat="50.680801" lon="6.174915">
        <ele>310.200000</ele>
        <time>2009-07-19T16:57:34Z</time>
      </trkpt>
      <trkpt lat="50.680784" lon="6.174822">
        <ele>311.100000</ele>
        <time>2009-07-19T16:57:40Z</time>
      </trkpt>
      <trkpt lat="50.680732" lon="6.174696">
        <ele>312.100000</ele>
        <time>2009-07-19T16:57:50Z</time>
      </trkpt>
      <trkpt lat="50.680737" lon="6.174508">
        <ele>311.600000</ele>
        <time>2009-07-19T16:58:01Z</time>
      </trkpt>
      <trkpt lat="50.680725" lon="6.174400">
        <ele>312.600000</ele>
        <time>2009-07-19T16:58:08Z</time>
      </trkpt>
      <trkpt lat="50.680701" lon="6.174300">
        <ele>314.000000</ele>
        <time>2009-07-19T16:58:15Z</time>
      </trkpt>
      <trkpt lat="50.680661" lon="6.174161">
        <ele>315.000000</ele>
        <time>2009-07-19T16:58:25Z</time>
      </trkpt>
      <trkpt lat="50.680602" lon="6.174047">
        <ele>316.900000</ele>
        <time>2009-07-19T16:58:34Z</time>
      </trkpt>
      <trkpt lat="50.680544" lon="6.173911">
        <ele>319.300000</ele>
        <time>2009-07-19T16:58:44Z</time>
      </trkpt>
      <trkpt lat="50.680529" lon="6.173788">
        <ele>320.700000</ele>
        <time>2009-07-19T16:58:52Z</time>
      </trkpt>
      <trkpt lat="50.680494" lon="6.173577">
        <ele>323.100000</ele>
        <time>2009-07-19T16:59:06Z</time>
      </trkpt>
      <trkpt lat="50.680496" lon="6.173402">
        <ele>325.100000</ele>
        <time>2009-07-19T16:59:17Z</time>
      </trkpt>
      <trkpt lat="50.680466" lon="6.173196">
        <ele>326.000000</ele>
        <time>2009-07-19T16:59:31Z</time>
      </trkpt>
      <trkpt lat="50.680400" lon="6.172963">
        <ele>326.500000</ele>
        <time>2009-07-19T16:59:47Z</time>
      </trkpt>
      <trkpt lat="50.680354" lon="6.172845">
        <ele>328.400000</ele>
        <time>2009-07-19T16:59:55Z</time>
      </trkpt>
      <trkpt lat="50.680320" lon="6.172617">
        <ele>329.900000</ele>
        <time>2009-07-19T17:00:10Z</time>
      </trkpt>
      <trkpt lat="50.680283" lon="6.172443">
        <ele>330.800000</ele>
        <time>2009-07-19T17:00:22Z</time>
      </trkpt>
      <trkpt lat="50.680288" lon="6.172250">
        <ele>332.300000</ele>
        <time>2009-07-19T17:00:34Z</time>
      </trkpt>
      <trkpt lat="50.680297" lon="6.172218">
        <ele>332.300000</ele>
        <time>2009-07-19T17:00:36Z</time>
      </trkpt>
      <trkpt lat="50.680278" lon="6.172096">
        <ele>331.800000</ele>
        <time>2009-07-19T17:00:44Z</time>
      </trkpt>
      <trkpt lat="50.680238" lon="6.171764">
        <ele>332.300000</ele>
        <time>2009-07-19T17:01:06Z</time>
      </trkpt>
      <trkpt lat="50.680222" lon="6.171501">
        <ele>332.800000</ele>
        <time>2009-07-19T17:01:22Z</time>
      </trkpt>
      <trkpt lat="50.680179" lon="6.171355">
        <ele>333.200000</ele>
        <time>2009-07-19T17:01:32Z</time>
      </trkpt>
      <trkpt lat="50.680116" lon="6.171291">
        <ele>333.200000</ele>
        <time>2009-07-19T17:01:40Z</time>
      </trkpt>
      <trkpt lat="50.680069" lon="6.171116">
        <ele>333.200000</ele>
        <time>2009-07-19T17:01:52Z</time>
      </trkpt>
      <trkpt lat="50.680016" lon="6.170917">
        <ele>333.200000</ele>
        <time>2009-07-19T17:02:05Z</time>
      </trkpt>
      <trkpt lat="50.680002" lon="6.170879">
        <ele>333.200000</ele>
        <time>2009-07-19T17:02:08Z</time>
      </trkpt>
      <trkpt lat="50.679957" lon="6.170696">
        <ele>333.200000</ele>
        <time>2009-07-19T17:02:21Z</time>
      </trkpt>
      <trkpt lat="50.679955" lon="6.170694">
        <ele>333.700000</ele>
        <time>2009-07-19T17:02:21Z</time>
      </trkpt>
      <trkpt lat="50.680074" lon="6.170439">
        <ele>328.400000</ele>
        <time>2009-07-19T17:02:41Z</time>
      </trkpt>
      <trkpt lat="50.679967" lon="6.170435">
        <ele>331.800000</ele>
        <time>2009-07-19T17:02:52Z</time>
      </trkpt>
      <trkpt lat="50.679967" lon="6.170437">
        <ele>327.900000</ele>
        <time>2009-07-19T17:02:52Z</time>
      </trkpt>
      <trkpt lat="50.679966" lon="6.170441">
        <ele>326.000000</ele>
        <time>2009-07-19T17:02:52Z</time>
      </trkpt>
      <trkpt lat="50.679963" lon="6.170439">
        <ele>328.900000</ele>
        <time>2009-07-19T17:02:52Z</time>
      </trkpt>
      <trkpt lat="50.679967" lon="6.170466">
        <ele>327.900000</ele>
        <time>2009-07-19T17:02:54Z</time>
      </trkpt>
      <trkpt lat="50.679929" lon="6.170515">
        <ele>328.400000</ele>
        <time>2009-07-19T17:02:59Z</time>
      </trkpt>
      <trkpt lat="50.679860" lon="6.170342">
        <ele>328.400000</ele>
        <time>2009-07-19T17:03:12Z</time>
      </trkpt>
      <trkpt lat="50.679785" lon="6.170076">
        <ele>328.400000</ele>
        <time>2009-07-19T17:03:30Z</time>
      </trkpt>
      <trkpt lat="50.679745" lon="6.169848">
        <ele>327.900000</ele>
        <time>2009-07-19T17:03:45Z</time>
      </trkpt>
      <trkpt lat="50.679708" lon="6.169594">
        <ele>327.900000</ele>
        <time>2009-07-19T17:04:02Z</time>
      </trkpt>
      <trkpt lat="50.679678" lon="6.169415">
        <ele>327.500000</ele>
        <time>2009-07-19T17:04:13Z</time>
      </trkpt>
      <trkpt lat="50.679568" lon="6.169254">
        <ele>327.000000</ele>
        <time>2009-07-19T17:04:28Z</time>
      </trkpt>
      <trkpt lat="50.679539" lon="6.169143">
        <ele>327.000000</ele>
        <time>2009-07-19T17:04:36Z</time>
      </trkpt>
      <trkpt lat="50.679506" lon="6.169041">
        <ele>327.000000</ele>
        <time>2009-07-19T17:04:43Z</time>
      </trkpt>
      <trkpt lat="50.679572" lon="6.168675">
        <ele>327.000000</ele>
        <time>2009-07-19T17:05:07Z</time>
      </trkpt>
      <trkpt lat="50.679541" lon="6.168369">
        <ele>326.000000</ele>
        <time>2009-07-19T17:05:27Z</time>
      </trkpt>
      <trkpt lat="50.679526" lon="6.168292">
        <ele>326.500000</ele>
        <time>2009-07-19T17:05:32Z</time>
      </trkpt>
      <trkpt lat="50.679526" lon="6.168144">
        <ele>325.500000</ele>
        <time>2009-07-19T17:05:41Z</time>
      </trkpt>
      <trkpt lat="50.679489" lon="6.167990">
        <ele>325.100000</ele>
        <time>2009-07-19T17:05:51Z</time>
      </trkpt>
      <trkpt lat="50.679445" lon="6.167891">
        <ele>323.600000</ele>
        <time>2009-07-19T17:05:59Z</time>
      </trkpt>
      <trkpt lat="50.679414" lon="6.167707">
        <ele>323.600000</ele>
        <time>2009-07-19T17:06:11Z</time>
      </trkpt>
      <trkpt lat="50.679398" lon="6.167582">
        <ele>323.100000</ele>
        <time>2009-07-19T17:06:19Z</time>
      </trkpt>
      <trkpt lat="50.679337" lon="6.167172">
        <ele>323.100000</ele>
        <time>2009-07-19T17:06:46Z</time>
      </trkpt>
      <trkpt lat="50.679366" lon="6.166966">
        <ele>323.600000</ele>
        <time>2009-07-19T17:06:59Z</time>
      </trkpt>
      <trkpt lat="50.679372" lon="6.166945">
        <ele>320.300000</ele>
        <time>2009-07-19T17:07:01Z</time>
      </trkpt>
      <trkpt lat="50.679374" lon="6.166939">
        <ele>323.600000</ele>
        <time>2009-07-19T17:07:01Z</time>
      </trkpt>
      <trkpt lat="50.679377" lon="6.166926">
        <ele>327.000000</ele>
        <time>2009-07-19T17:07:02Z</time>
      </trkpt>
      <trkpt lat="50.679377" lon="6.166920">
        <ele>320.700000</ele>
        <time>2009-07-19T17:07:02Z</time>
      </trkpt>
      <trkpt lat="50.679378" lon="6.166902">
        <ele>323.600000</ele>
        <time>2009-07-19T17:07:03Z</time>
      </trkpt>
      <trkpt lat="50.679378" lon="6.166876">
        <ele>324.600000</ele>
        <time>2009-07-19T17:07:05Z</time>
      </trkpt>
      <trkpt lat="50.679369" lon="6.166833">
        <ele>321.200000</ele>
        <time>2009-07-19T17:07:08Z</time>
      </trkpt>
      <trkpt lat="50.679351" lon="6.166797">
        <ele>327.000000</ele>
        <time>2009-07-19T17:07:11Z</time>
      </trkpt>
      <trkpt lat="50.679347" lon="6.166789">
        <ele>320.700000</ele>
        <time>2009-07-19T17:07:11Z</time>
      </trkpt>
      <trkpt lat="50.679342" lon="6.166776">
        <ele>327.000000</ele>
        <time>2009-07-19T17:07:12Z</time>
      </trkpt>
      <trkpt lat="50.679339" lon="6.166770">
        <ele>320.700000</ele>
        <time>2009-07-19T17:07:13Z</time>
      </trkpt>
      <trkpt lat="50.679333" lon="6.166759">
        <ele>326.000000</ele>
        <time>2009-07-19T17:07:14Z</time>
      </trkpt>
      <trkpt lat="50.679332" lon="6.166757">
        <ele>321.700000</ele>
        <time>2009-07-19T17:07:14Z</time>
      </trkpt>
      <trkpt lat="50.679330" lon="6.166755">
        <ele>326.000000</ele>
        <time>2009-07-19T17:07:14Z</time>
      </trkpt>
      <trkpt lat="50.679328" lon="6.166753">
        <ele>321.200000</ele>
        <time>2009-07-19T17:07:14Z</time>
      </trkpt>
      <trkpt lat="50.679326" lon="6.166740">
        <ele>326.500000</ele>
        <time>2009-07-19T17:07:15Z</time>
      </trkpt>
      <trkpt lat="50.679324" lon="6.166736">
        <ele>324.100000</ele>
        <time>2009-07-19T17:07:16Z</time>
      </trkpt>
      <trkpt lat="50.679327" lon="6.166687">
        <ele>322.200000</ele>
        <time>2009-07-19T17:07:19Z</time>
      </trkpt>
      <trkpt lat="50.679288" lon="6.166666">
        <ele>321.700000</ele>
        <time>2009-07-19T17:07:23Z</time>
      </trkpt>
      <trkpt lat="50.679237" lon="6.166474">
        <ele>321.700000</ele>
        <time>2009-07-19T17:07:36Z</time>
      </trkpt>
      <trkpt lat="50.679236" lon="6.166444">
        <ele>321.700000</ele>
        <time>2009-07-19T17:07:38Z</time>
      </trkpt>
      <trkpt lat="50.679204" lon="6.166178">
        <ele>321.700000</ele>
        <time>2009-07-19T17:07:55Z</time>
      </trkpt>
      <trkpt lat="50.679187" lon="6.166084">
        <ele>321.200000</ele>
        <time>2009-07-19T17:08:01Z</time>
      </trkpt>
      <trkpt lat="50.679164" lon="6.165998">
        <ele>321.700000</ele>
        <time>2009-07-19T17:08:07Z</time>
      </trkpt>
      <trkpt lat="50.679125" lon="6.165742">
        <ele>321.700000</ele>
        <time>2009-07-19T17:08:24Z</time>
      </trkpt>
      <trkpt lat="50.679070" lon="6.165518">
        <ele>320.700000</ele>
        <time>2009-07-19T17:08:39Z</time>
      </trkpt>
      <trkpt lat="50.679030" lon="6.165449">
        <ele>320.300000</ele>
        <time>2009-07-19T17:08:45Z</time>
      </trkpt>
      <trkpt lat="50.678996" lon="6.165338">
        <ele>320.300000</ele>
        <time>2009-07-19T17:08:52Z</time>
      </trkpt>
      <trkpt lat="50.679012" lon="6.165038">
        <ele>318.800000</ele>
        <time>2009-07-19T17:09:11Z</time>
      </trkpt>
      <trkpt lat="50.678970" lon="6.164944">
        <ele>317.400000</ele>
        <time>2009-07-19T17:09:19Z</time>
      </trkpt>
      <trkpt lat="50.678948" lon="6.164896">
        <ele>317.400000</ele>
        <time>2009-07-19T17:09:22Z</time>
      </trkpt>
      <trkpt lat="50.678866" lon="6.164896">
        <ele>317.900000</ele>
        <time>2009-07-19T17:09:31Z</time>
      </trkpt>
      <trkpt lat="50.678711" lon="6.164945">
        <ele>318.300000</ele>
        <time>2009-07-19T17:09:46Z</time>
      </trkpt>
      <trkpt lat="50.678571" lon="6.165002">
        <ele>320.300000</ele>
        <time>2009-07-19T17:10:01Z</time>
      </trkpt>
      <trkpt lat="50.678543" lon="6.165009">
        <ele>320.700000</ele>
        <time>2009-07-19T17:10:04Z</time>
      </trkpt>
      <trkpt lat="50.678383" lon="6.165051">
        <ele>323.100000</ele>
        <time>2009-07-19T17:10:20Z</time>
      </trkpt>
      <trkpt lat="50.678310" lon="6.165131">
        <ele>323.100000</ele>
        <time>2009-07-19T17:10:29Z</time>
      </trkpt>
      <trkpt lat="50.678271" lon="6.165123">
        <ele>324.600000</ele>
        <time>2009-07-19T17:10:33Z</time>
      </trkpt>
      <trkpt lat="50.678134" lon="6.165186">
        <ele>325.500000</ele>
        <time>2009-07-19T17:10:47Z</time>
      </trkpt>
      <trkpt lat="50.678033" lon="6.165186">
        <ele>326.000000</ele>
        <time>2009-07-19T17:10:57Z</time>
      </trkpt>
      <trkpt lat="50.677982" lon="6.165016">
        <ele>326.500000</ele>
        <time>2009-07-19T17:11:09Z</time>
      </trkpt>
      <trkpt lat="50.677981" lon="6.164980">
        <ele>327.000000</ele>
        <time>2009-07-19T17:11:11Z</time>
      </trkpt>
      <trkpt lat="50.677767" lon="6.165098">
        <ele>327.900000</ele>
        <time>2009-07-19T17:11:34Z</time>
      </trkpt>
      <trkpt lat="50.677667" lon="6.165153">
        <ele>328.900000</ele>
        <time>2009-07-19T17:11:44Z</time>
      </trkpt>
      <trkpt lat="50.677575" lon="6.165191">
        <ele>329.900000</ele>
        <time>2009-07-19T17:11:54Z</time>
      </trkpt>
      <trkpt lat="50.677565" lon="6.165222">
        <ele>329.900000</ele>
        <time>2009-07-19T17:11:56Z</time>
      </trkpt>
      <trkpt lat="50.677528" lon="6.165301">
        <ele>330.800000</ele>
        <time>2009-07-19T17:12:02Z</time>
      </trkpt>
      <trkpt lat="50.677428" lon="6.165412">
        <ele>331.800000</ele>
        <time>2009-07-19T17:12:14Z</time>
      </trkpt>
      <trkpt lat="50.677316" lon="6.165405">
        <ele>332.800000</ele>
        <time>2009-07-19T17:12:25Z</time>
      </trkpt>
      <trkpt lat="50.677182" lon="6.165487">
        <ele>333.200000</ele>
        <time>2009-07-19T17:12:40Z</time>
      </trkpt>
      <trkpt lat="50.677049" lon="6.165565">
        <ele>334.200000</ele>
        <time>2009-07-19T17:12:54Z</time>
      </trkpt>
      <trkpt lat="50.676956" lon="6.165642">
        <ele>335.200000</ele>
        <time>2009-07-19T17:13:04Z</time>
      </trkpt>
      <trkpt lat="50.676925" lon="6.165665">
        <ele>335.600000</ele>
        <time>2009-07-19T17:13:08Z</time>
      </trkpt>
      <trkpt lat="50.676886" lon="6.165747">
        <ele>336.100000</ele>
        <time>2009-07-19T17:13:14Z</time>
      </trkpt>
      <trkpt lat="50.676742" lon="6.165839">
        <ele>337.100000</ele>
        <time>2009-07-19T17:13:30Z</time>
      </trkpt>
      <trkpt lat="50.676611" lon="6.165869">
        <ele>338.000000</ele>
        <time>2009-07-19T17:13:43Z</time>
      </trkpt>
      <trkpt lat="50.676522" lon="6.165921">
        <ele>338.500000</ele>
        <time>2009-07-19T17:13:52Z</time>
      </trkpt>
      <trkpt lat="50.676425" lon="6.165966">
        <ele>339.000000</ele>
        <time>2009-07-19T17:14:02Z</time>
      </trkpt>
      <trkpt lat="50.676301" lon="6.166033">
        <ele>340.400000</ele>
        <time>2009-07-19T17:14:16Z</time>
      </trkpt>
      <trkpt lat="50.676210" lon="6.166078">
        <ele>340.400000</ele>
        <time>2009-07-19T17:14:25Z</time>
      </trkpt>
      <trkpt lat="50.676118" lon="6.166131">
        <ele>340.900000</ele>
        <time>2009-07-19T17:14:35Z</time>
      </trkpt>
      <trkpt lat="50.676021" lon="6.166079">
        <ele>341.400000</ele>
        <time>2009-07-19T17:14:45Z</time>
      </trkpt>
      <trkpt lat="50.675866" lon="6.166111">
        <ele>341.400000</ele>
        <time>2009-07-19T17:15:01Z</time>
      </trkpt>
      <trkpt lat="50.675700" lon="6.166188">
        <ele>341.900000</ele>
        <time>2009-07-19T17:15:18Z</time>
      </trkpt>
      <trkpt lat="50.675563" lon="6.166208">
        <ele>342.800000</ele>
        <time>2009-07-19T17:15:32Z</time>
      </trkpt>
      <trkpt lat="50.675508" lon="6.166298">
        <ele>342.400000</ele>
        <time>2009-07-19T17:15:40Z</time>
      </trkpt>
      <trkpt lat="50.675519" lon="6.166365">
        <ele>342.400000</ele>
        <time>2009-07-19T17:15:44Z</time>
      </trkpt>
      <trkpt lat="50.675501" lon="6.166550">
        <ele>342.800000</ele>
        <time>2009-07-19T17:15:56Z</time>
      </trkpt>
      <trkpt lat="50.675514" lon="6.166885">
        <ele>341.900000</ele>
        <time>2009-07-19T17:16:17Z</time>
      </trkpt>
      <trkpt lat="50.675528" lon="6.167096">
        <ele>342.800000</ele>
        <time>2009-07-19T17:16:30Z</time>
      </trkpt>
      <trkpt lat="50.675542" lon="6.167216">
        <ele>342.800000</ele>
        <time>2009-07-19T17:16:38Z</time>
      </trkpt>
      <trkpt lat="50.675567" lon="6.167545">
        <ele>342.400000</ele>
        <time>2009-07-19T17:16:59Z</time>
      </trkpt>
      <trkpt lat="50.675570" lon="6.167592">
        <ele>342.400000</ele>
        <time>2009-07-19T17:17:02Z</time>
      </trkpt>
      <trkpt lat="50.675615" lon="6.167790">
        <ele>341.900000</ele>
        <time>2009-07-19T17:17:15Z</time>
      </trkpt>
      <trkpt lat="50.675617" lon="6.167857">
        <ele>341.900000</ele>
        <time>2009-07-19T17:17:20Z</time>
      </trkpt>
      <trkpt lat="50.675613" lon="6.167926">
        <ele>341.900000</ele>
        <time>2009-07-19T17:17:24Z</time>
      </trkpt>
      <trkpt lat="50.675618" lon="6.167977">
        <ele>341.900000</ele>
        <time>2009-07-19T17:17:27Z</time>
      </trkpt>
      <trkpt lat="50.675626" lon="6.168161">
        <ele>342.400000</ele>
        <time>2009-07-19T17:17:39Z</time>
      </trkpt>
      <trkpt lat="50.675681" lon="6.168326">
        <ele>342.400000</ele>
        <time>2009-07-19T17:17:51Z</time>
      </trkpt>
      <trkpt lat="50.675721" lon="6.168556">
        <ele>341.900000</ele>
        <time>2009-07-19T17:18:06Z</time>
      </trkpt>
      <trkpt lat="50.675767" lon="6.168853">
        <ele>342.800000</ele>
        <time>2009-07-19T17:18:25Z</time>
      </trkpt>
      <trkpt lat="50.675804" lon="6.169039">
        <ele>341.900000</ele>
        <time>2009-07-19T17:18:37Z</time>
      </trkpt>
      <trkpt lat="50.675865" lon="6.169274">
        <ele>342.400000</ele>
        <time>2009-07-19T17:18:53Z</time>
      </trkpt>
      <trkpt lat="50.675867" lon="6.169381">
        <ele>341.900000</ele>
        <time>2009-07-19T17:19:00Z</time>
      </trkpt>
      <trkpt lat="50.675915" lon="6.169631">
        <ele>341.900000</ele>
        <time>2009-07-19T17:19:17Z</time>
      </trkpt>
      <trkpt lat="50.675924" lon="6.169683">
        <ele>342.400000</ele>
        <time>2009-07-19T17:19:20Z</time>
      </trkpt>
      <trkpt lat="50.675960" lon="6.169925">
        <ele>342.400000</ele>
        <time>2009-07-19T17:19:36Z</time>
      </trkpt>
      <trkpt lat="50.675988" lon="6.170212">
        <ele>342.800000</ele>
        <time>2009-07-19T17:19:54Z</time>
      </trkpt>
      <trkpt lat="50.676018" lon="6.170470">
        <ele>342.400000</ele>
        <time>2009-07-19T17:20:11Z</time>
      </trkpt>
      <trkpt lat="50.676020" lon="6.170497">
        <ele>342.400000</ele>
        <time>2009-07-19T17:20:12Z</time>
      </trkpt>
      <trkpt lat="50.676028" lon="6.170585">
        <ele>342.400000</ele>
        <time>2009-07-19T17:20:18Z</time>
      </trkpt>
      <trkpt lat="50.676038" lon="6.170862">
        <ele>342.800000</ele>
        <time>2009-07-19T17:20:36Z</time>
      </trkpt>
      <trkpt lat="50.676114" lon="6.171061">
        <ele>342.800000</ele>
        <time>2009-07-19T17:20:50Z</time>
      </trkpt>
      <trkpt lat="50.676158" lon="6.171312">
        <ele>342.800000</ele>
        <time>2009-07-19T17:21:07Z</time>
      </trkpt>
      <trkpt lat="50.676255" lon="6.171511">
        <ele>342.800000</ele>
        <time>2009-07-19T17:21:23Z</time>
      </trkpt>
      <trkpt lat="50.676255" lon="6.171542">
        <ele>343.300000</ele>
        <time>2009-07-19T17:21:25Z</time>
      </trkpt>
      <trkpt lat="50.676315" lon="6.171829">
        <ele>342.800000</ele>
        <time>2009-07-19T17:21:44Z</time>
      </trkpt>
      <trkpt lat="50.676307" lon="6.172032">
        <ele>343.300000</ele>
        <time>2009-07-19T17:21:56Z</time>
      </trkpt>
      <trkpt lat="50.676165" lon="6.172135">
        <ele>344.300000</ele>
        <time>2009-07-19T17:22:12Z</time>
      </trkpt>
      <trkpt lat="50.676016" lon="6.172149">
        <ele>344.300000</ele>
        <time>2009-07-19T17:22:27Z</time>
      </trkpt>
      <trkpt lat="50.675844" lon="6.172230">
        <ele>344.300000</ele>
        <time>2009-07-19T17:22:45Z</time>
      </trkpt>
      <trkpt lat="50.675683" lon="6.172280">
        <ele>344.800000</ele>
        <time>2009-07-19T17:23:01Z</time>
      </trkpt>
      <trkpt lat="50.675542" lon="6.172317">
        <ele>344.800000</ele>
        <time>2009-07-19T17:23:15Z</time>
      </trkpt>
      <trkpt lat="50.675409" lon="6.172343">
        <ele>344.800000</ele>
        <time>2009-07-19T17:23:29Z</time>
      </trkpt>
      <trkpt lat="50.675241" lon="6.172359">
        <ele>345.300000</ele>
        <time>2009-07-19T17:23:46Z</time>
      </trkpt>
      <trkpt lat="50.675041" lon="6.172382">
        <ele>345.300000</ele>
        <time>2009-07-19T17:24:06Z</time>
      </trkpt>
      <trkpt lat="50.674888" lon="6.172424">
        <ele>345.700000</ele>
        <time>2009-07-19T17:24:21Z</time>
      </trkpt>
      <trkpt lat="50.674848" lon="6.172439">
        <ele>345.700000</ele>
        <time>2009-07-19T17:24:25Z</time>
      </trkpt>
      <trkpt lat="50.674756" lon="6.172485">
        <ele>346.200000</ele>
        <time>2009-07-19T17:24:35Z</time>
      </trkpt>
      <trkpt lat="50.674510" lon="6.172588">
        <ele>346.700000</ele>
        <time>2009-07-19T17:25:00Z</time>
      </trkpt>
      <trkpt lat="50.674351" lon="6.172642">
        <ele>346.200000</ele>
        <time>2009-07-19T17:25:16Z</time>
      </trkpt>
      <trkpt lat="50.674161" lon="6.172775">
        <ele>346.700000</ele>
        <time>2009-07-19T17:25:37Z</time>
      </trkpt>
      <trkpt lat="50.674107" lon="6.172781">
        <ele>347.200000</ele>
        <time>2009-07-19T17:25:42Z</time>
      </trkpt>
      <trkpt lat="50.673959" lon="6.172828">
        <ele>347.700000</ele>
        <time>2009-07-19T17:25:58Z</time>
      </trkpt>
      <trkpt lat="50.673840" lon="6.172873">
        <ele>347.200000</ele>
        <time>2009-07-19T17:26:10Z</time>
      </trkpt>
      <trkpt lat="50.673682" lon="6.172911">
        <ele>347.200000</ele>
        <time>2009-07-19T17:26:26Z</time>
      </trkpt>
      <trkpt lat="50.673499" lon="6.172970">
        <ele>348.100000</ele>
        <time>2009-07-19T17:26:44Z</time>
      </trkpt>
      <trkpt lat="50.673306" lon="6.173026">
        <ele>348.100000</ele>
        <time>2009-07-19T17:27:04Z</time>
      </trkpt>
      <trkpt lat="50.673098" lon="6.173104">
        <ele>349.600000</ele>
        <time>2009-07-19T17:27:25Z</time>
      </trkpt>
      <trkpt lat="50.672879" lon="6.173196">
        <ele>350.500000</ele>
        <time>2009-07-19T17:27:48Z</time>
      </trkpt>
      <trkpt lat="50.672711" lon="6.173276">
        <ele>350.500000</ele>
        <time>2009-07-19T17:28:05Z</time>
      </trkpt>
      <trkpt lat="50.672565" lon="6.173330">
        <ele>350.500000</ele>
        <time>2009-07-19T17:28:20Z</time>
      </trkpt>
      <trkpt lat="50.672431" lon="6.173367">
        <ele>350.500000</ele>
        <time>2009-07-19T17:28:34Z</time>
      </trkpt>
      <trkpt lat="50.672291" lon="6.173423">
        <ele>351.500000</ele>
        <time>2009-07-19T17:28:48Z</time>
      </trkpt>
      <trkpt lat="50.672215" lon="6.173442">
        <ele>351.500000</ele>
        <time>2009-07-19T17:28:56Z</time>
      </trkpt>
      <trkpt lat="50.672135" lon="6.173454">
        <ele>351.500000</ele>
        <time>2009-07-19T17:29:04Z</time>
      </trkpt>
      <trkpt lat="50.672018" lon="6.173448">
        <ele>352.000000</ele>
        <time>2009-07-19T17:29:16Z</time>
      </trkpt>
      <trkpt lat="50.671864" lon="6.173501">
        <ele>352.000000</ele>
        <time>2009-07-19T17:29:31Z</time>
      </trkpt>
      <trkpt lat="50.671730" lon="6.173579">
        <ele>352.500000</ele>
        <time>2009-07-19T17:29:46Z</time>
      </trkpt>
      <trkpt lat="50.671592" lon="6.173651">
        <ele>352.500000</ele>
        <time>2009-07-19T17:30:00Z</time>
      </trkpt>
      <trkpt lat="50.671559" lon="6.173659">
        <ele>352.500000</ele>
        <time>2009-07-19T17:30:03Z</time>
      </trkpt>
      <trkpt lat="50.671338" lon="6.173825">
        <ele>353.400000</ele>
        <time>2009-07-19T17:30:28Z</time>
      </trkpt>
      <trkpt lat="50.671156" lon="6.173955">
        <ele>354.400000</ele>
        <time>2009-07-19T17:30:48Z</time>
      </trkpt>
      <trkpt lat="50.670936" lon="6.174074">
        <ele>355.300000</ele>
        <time>2009-07-19T17:31:11Z</time>
      </trkpt>
      <trkpt lat="50.670788" lon="6.174042">
        <ele>355.300000</ele>
        <time>2009-07-19T17:31:26Z</time>
      </trkpt>
      <trkpt lat="50.670674" lon="6.174090">
        <ele>355.800000</ele>
        <time>2009-07-19T17:31:38Z</time>
      </trkpt>
      <trkpt lat="50.670513" lon="6.174221">
        <ele>356.800000</ele>
        <time>2009-07-19T17:31:56Z</time>
      </trkpt>
      <trkpt lat="50.670348" lon="6.174330">
        <ele>356.800000</ele>
        <time>2009-07-19T17:32:13Z</time>
      </trkpt>
      <trkpt lat="50.670185" lon="6.174402">
        <ele>357.700000</ele>
        <time>2009-07-19T17:32:30Z</time>
      </trkpt>
      <trkpt lat="50.670093" lon="6.174393">
        <ele>357.700000</ele>
        <time>2009-07-19T17:32:40Z</time>
      </trkpt>
      <trkpt lat="50.669948" lon="6.174431">
        <ele>358.200000</ele>
        <time>2009-07-19T17:32:54Z</time>
      </trkpt>
      <trkpt lat="50.669803" lon="6.174476">
        <ele>359.200000</ele>
        <time>2009-07-19T17:33:09Z</time>
      </trkpt>
      <trkpt lat="50.669660" lon="6.174596">
        <ele>359.200000</ele>
        <time>2009-07-19T17:33:25Z</time>
      </trkpt>
      <trkpt lat="50.669452" lon="6.174714">
        <ele>359.700000</ele>
        <time>2009-07-19T17:33:47Z</time>
      </trkpt>
      <trkpt lat="50.669303" lon="6.174794">
        <ele>359.700000</ele>
        <time>2009-07-19T17:34:03Z</time>
      </trkpt>
      <trkpt lat="50.669110" lon="6.174861">
        <ele>361.100000</ele>
        <time>2009-07-19T17:34:22Z</time>
      </trkpt>
      <trkpt lat="50.668939" lon="6.174942">
        <ele>361.600000</ele>
        <time>2009-07-19T17:34:40Z</time>
      </trkpt>
      <trkpt lat="50.668784" lon="6.175005">
        <ele>362.600000</ele>
        <time>2009-07-19T17:34:56Z</time>
      </trkpt>
      <trkpt lat="50.668695" lon="6.175046">
        <ele>363.500000</ele>
        <time>2009-07-19T17:35:05Z</time>
      </trkpt>
      <trkpt lat="50.668534" lon="6.175107">
        <ele>364.500000</ele>
        <time>2009-07-19T17:35:22Z</time>
      </trkpt>
      <trkpt lat="50.668353" lon="6.175145">
        <ele>365.400000</ele>
        <time>2009-07-19T17:35:40Z</time>
      </trkpt>
      <trkpt lat="50.668230" lon="6.175185">
        <ele>365.900000</ele>
        <time>2009-07-19T17:35:53Z</time>
      </trkpt>
      <trkpt lat="50.668176" lon="6.175183">
        <ele>366.400000</ele>
        <time>2009-07-19T17:35:58Z</time>
      </trkpt>
      <trkpt lat="50.668113" lon="6.175216">
        <ele>365.900000</ele>
        <time>2009-07-19T17:36:05Z</time>
      </trkpt>
      <trkpt lat="50.667961" lon="6.175273">
        <ele>367.400000</ele>
        <time>2009-07-19T17:36:20Z</time>
      </trkpt>
      <trkpt lat="50.667848" lon="6.175338">
        <ele>368.800000</ele>
        <time>2009-07-19T17:36:32Z</time>
      </trkpt>
      <trkpt lat="50.667782" lon="6.175376">
        <ele>368.800000</ele>
        <time>2009-07-19T17:36:39Z</time>
      </trkpt>
      <trkpt lat="50.667710" lon="6.175390">
        <ele>370.200000</ele>
        <time>2009-07-19T17:36:47Z</time>
      </trkpt>
      <trkpt lat="50.667572" lon="6.175414">
        <ele>371.200000</ele>
        <time>2009-07-19T17:37:00Z</time>
      </trkpt>
      <trkpt lat="50.667419" lon="6.175503">
        <ele>373.100000</ele>
        <time>2009-07-19T17:37:17Z</time>
      </trkpt>
      <trkpt lat="50.667245" lon="6.175604">
        <ele>373.600000</ele>
        <time>2009-07-19T17:37:35Z</time>
      </trkpt>
      <trkpt lat="50.667212" lon="6.175610">
        <ele>374.600000</ele>
        <time>2009-07-19T17:37:38Z</time>
      </trkpt>
      <trkpt lat="50.667067" lon="6.175639">
        <ele>375.500000</ele>
        <time>2009-07-19T17:37:53Z</time>
      </trkpt>
      <trkpt lat="50.666912" lon="6.175661">
        <ele>376.500000</ele>
        <time>2009-07-19T17:38:09Z</time>
      </trkpt>
      <trkpt lat="50.666779" lon="6.175718">
        <ele>376.500000</ele>
        <time>2009-07-19T17:38:22Z</time>
      </trkpt>
      <trkpt lat="50.666645" lon="6.175725">
        <ele>377.500000</ele>
        <time>2009-07-19T17:38:36Z</time>
      </trkpt>
      <trkpt lat="50.666530" lon="6.175778">
        <ele>378.400000</ele>
        <time>2009-07-19T17:38:48Z</time>
      </trkpt>
      <trkpt lat="50.666411" lon="6.175880">
        <ele>379.900000</ele>
        <time>2009-07-19T17:39:01Z</time>
      </trkpt>
      <trkpt lat="50.666334" lon="6.175927">
        <ele>380.300000</ele>
        <time>2009-07-19T17:39:09Z</time>
      </trkpt>
      <trkpt lat="50.666244" lon="6.175975">
        <ele>380.800000</ele>
        <time>2009-07-19T17:39:19Z</time>
      </trkpt>
      <trkpt lat="50.666179" lon="6.176064">
        <ele>381.300000</ele>
        <time>2009-07-19T17:39:27Z</time>
      </trkpt>
      <trkpt lat="50.666017" lon="6.176158">
        <ele>382.300000</ele>
        <time>2009-07-19T17:39:45Z</time>
      </trkpt>
      <trkpt lat="50.665915" lon="6.176257">
        <ele>383.700000</ele>
        <time>2009-07-19T17:39:57Z</time>
      </trkpt>
      <trkpt lat="50.665793" lon="6.176358">
        <ele>384.200000</ele>
        <time>2009-07-19T17:40:10Z</time>
      </trkpt>
      <trkpt lat="50.665685" lon="6.176468">
        <ele>384.200000</ele>
        <time>2009-07-19T17:40:23Z</time>
      </trkpt>
      <trkpt lat="50.665663" lon="6.176485">
        <ele>384.200000</ele>
        <time>2009-07-19T17:40:26Z</time>
      </trkpt>
      <trkpt lat="50.665609" lon="6.176508">
        <ele>384.700000</ele>
        <time>2009-07-19T17:40:31Z</time>
      </trkpt>
      <trkpt lat="50.665481" lon="6.176653">
        <ele>385.600000</ele>
        <time>2009-07-19T17:40:47Z</time>
      </trkpt>
      <trkpt lat="50.665368" lon="6.176779">
        <ele>386.600000</ele>
        <time>2009-07-19T17:41:01Z</time>
      </trkpt>
      <trkpt lat="50.665260" lon="6.176869">
        <ele>388.000000</ele>
        <time>2009-07-19T17:41:13Z</time>
      </trkpt>
      <trkpt lat="50.665079" lon="6.177048">
        <ele>389.000000</ele>
        <time>2009-07-19T17:41:34Z</time>
      </trkpt>
      <trkpt lat="50.664946" lon="6.177133">
        <ele>389.500000</ele>
        <time>2009-07-19T17:41:48Z</time>
      </trkpt>
      <trkpt lat="50.664787" lon="6.177252">
        <ele>390.900000</ele>
        <time>2009-07-19T17:42:06Z</time>
      </trkpt>
      <trkpt lat="50.664699" lon="6.177323">
        <ele>392.400000</ele>
        <time>2009-07-19T17:42:16Z</time>
      </trkpt>
      <trkpt lat="50.664573" lon="6.177471">
        <ele>391.900000</ele>
        <time>2009-07-19T17:42:31Z</time>
      </trkpt>
      <trkpt lat="50.664437" lon="6.177535">
        <ele>393.800000</ele>
        <time>2009-07-19T17:42:46Z</time>
      </trkpt>
      <trkpt lat="50.664418" lon="6.177552">
        <ele>394.300000</ele>
        <time>2009-07-19T17:42:48Z</time>
      </trkpt>
      <trkpt lat="50.664305" lon="6.177656">
        <ele>394.800000</ele>
        <time>2009-07-19T17:43:01Z</time>
      </trkpt>
      <trkpt lat="50.664181" lon="6.177765">
        <ele>395.200000</ele>
        <time>2009-07-19T17:43:15Z</time>
      </trkpt>
      <trkpt lat="50.664022" lon="6.177924">
        <ele>396.700000</ele>
        <time>2009-07-19T17:43:34Z</time>
      </trkpt>
      <trkpt lat="50.663900" lon="6.178082">
        <ele>398.100000</ele>
        <time>2009-07-19T17:43:50Z</time>
      </trkpt>
      <trkpt lat="50.663780" lon="6.178164">
        <ele>397.600000</ele>
        <time>2009-07-19T17:44:03Z</time>
      </trkpt>
      <trkpt lat="50.663643" lon="6.178238">
        <ele>399.100000</ele>
        <time>2009-07-19T17:44:17Z</time>
      </trkpt>
      <trkpt lat="50.663505" lon="6.178386">
        <ele>399.600000</ele>
        <time>2009-07-19T17:44:34Z</time>
      </trkpt>
      <trkpt lat="50.663396" lon="6.178440">
        <ele>400.000000</ele>
        <time>2009-07-19T17:44:45Z</time>
      </trkpt>
      <trkpt lat="50.663282" lon="6.178556">
        <ele>400.000000</ele>
        <time>2009-07-19T17:44:59Z</time>
      </trkpt>
      <trkpt lat="50.663193" lon="6.178680">
        <ele>401.000000</ele>
        <time>2009-07-19T17:45:10Z</time>
      </trkpt>
      <trkpt lat="50.663061" lon="6.178843">
        <ele>402.000000</ele>
        <time>2009-07-19T17:45:27Z</time>
      </trkpt>
      <trkpt lat="50.662946" lon="6.178876">
        <ele>403.400000</ele>
        <time>2009-07-19T17:45:39Z</time>
      </trkpt>
      <trkpt lat="50.662911" lon="6.178814">
        <ele>403.900000</ele>
        <time>2009-07-19T17:45:44Z</time>
      </trkpt>
      <trkpt lat="50.662872" lon="6.178806">
        <ele>407.300000</ele>
        <time>2009-07-19T17:45:48Z</time>
      </trkpt>
      <trkpt lat="50.662872" lon="6.178804">
        <ele>407.300000</ele>
        <time>2009-07-19T17:45:48Z</time>
      </trkpt>
      <trkpt lat="50.662877" lon="6.178800">
        <ele>403.400000</ele>
        <time>2009-07-19T17:45:49Z</time>
      </trkpt>
      <trkpt lat="50.662877" lon="6.178799">
        <ele>404.900000</ele>
        <time>2009-07-19T17:45:49Z</time>
      </trkpt>
      <trkpt lat="50.662866" lon="6.178807">
        <ele>401.000000</ele>
        <time>2009-07-19T17:45:50Z</time>
      </trkpt>
      <trkpt lat="50.662853" lon="6.178816">
        <ele>405.800000</ele>
        <time>2009-07-19T17:45:51Z</time>
      </trkpt>
      <trkpt lat="50.662847" lon="6.178820">
        <ele>405.300000</ele>
        <time>2009-07-19T17:45:52Z</time>
      </trkpt>
      <trkpt lat="50.662830" lon="6.178834">
        <ele>402.000000</ele>
        <time>2009-07-19T17:45:54Z</time>
      </trkpt>
      <trkpt lat="50.662823" lon="6.178840">
        <ele>405.800000</ele>
        <time>2009-07-19T17:45:55Z</time>
      </trkpt>
      <trkpt lat="50.662839" lon="6.178831">
        <ele>402.400000</ele>
        <time>2009-07-19T17:45:56Z</time>
      </trkpt>
      <trkpt lat="50.662838" lon="6.178832">
        <ele>405.300000</ele>
        <time>2009-07-19T17:45:56Z</time>
      </trkpt>
      <trkpt lat="50.662851" lon="6.178822">
        <ele>402.000000</ele>
        <time>2009-07-19T17:45:58Z</time>
      </trkpt>
      <trkpt lat="50.662854" lon="6.178817">
        <ele>406.800000</ele>
        <time>2009-07-19T17:45:58Z</time>
      </trkpt>
      <trkpt lat="50.662853" lon="6.178801">
        <ele>403.400000</ele>
        <time>2009-07-19T17:45:59Z</time>
      </trkpt>
      <trkpt lat="50.662843" lon="6.178798">
        <ele>403.900000</ele>
        <time>2009-07-19T17:46:00Z</time>
      </trkpt>
      <trkpt lat="50.662803" lon="6.178930">
        <ele>403.900000</ele>
        <time>2009-07-19T17:46:10Z</time>
      </trkpt>
      <trkpt lat="50.662715" lon="6.179105">
        <ele>404.900000</ele>
        <time>2009-07-19T17:46:24Z</time>
      </trkpt>
      <trkpt lat="50.662563" lon="6.179222">
        <ele>406.300000</ele>
        <time>2009-07-19T17:46:40Z</time>
      </trkpt>
      <trkpt lat="50.662428" lon="6.179318">
        <ele>407.700000</ele>
        <time>2009-07-19T17:46:55Z</time>
      </trkpt>
      <trkpt lat="50.662314" lon="6.179402">
        <ele>408.200000</ele>
        <time>2009-07-19T17:47:08Z</time>
      </trkpt>
      <trkpt lat="50.662156" lon="6.179587">
        <ele>410.100000</ele>
        <time>2009-07-19T17:47:27Z</time>
      </trkpt>
      <trkpt lat="50.662093" lon="6.179637">
        <ele>411.100000</ele>
        <time>2009-07-19T17:47:34Z</time>
      </trkpt>
      <trkpt lat="50.661946" lon="6.179745">
        <ele>412.100000</ele>
        <time>2009-07-19T17:47:51Z</time>
      </trkpt>
      <trkpt lat="50.661852" lon="6.179801">
        <ele>413.000000</ele>
        <time>2009-07-19T17:48:01Z</time>
      </trkpt>
      <trkpt lat="50.661748" lon="6.179858">
        <ele>414.000000</ele>
        <time>2009-07-19T17:48:12Z</time>
      </trkpt>
      <trkpt lat="50.661542" lon="6.180091">
        <ele>415.900000</ele>
        <time>2009-07-19T17:48:37Z</time>
      </trkpt>
      <trkpt lat="50.661348" lon="6.180281">
        <ele>416.900000</ele>
        <time>2009-07-19T17:49:00Z</time>
      </trkpt>
      <trkpt lat="50.661179" lon="6.180432">
        <ele>418.300000</ele>
        <time>2009-07-19T17:49:19Z</time>
      </trkpt>
      <trkpt lat="50.661013" lon="6.180499">
        <ele>419.800000</ele>
        <time>2009-07-19T17:49:36Z</time>
      </trkpt>
      <trkpt lat="50.660881" lon="6.180611">
        <ele>421.200000</ele>
        <time>2009-07-19T17:49:51Z</time>
      </trkpt>
      <trkpt lat="50.660854" lon="6.180611">
        <ele>421.200000</ele>
        <time>2009-07-19T17:49:54Z</time>
      </trkpt>
      <trkpt lat="50.660702" lon="6.180712">
        <ele>423.100000</ele>
        <time>2009-07-19T17:50:10Z</time>
      </trkpt>
      <trkpt lat="50.660645" lon="6.180801">
        <ele>424.100000</ele>
        <time>2009-07-19T17:50:18Z</time>
      </trkpt>
      <trkpt lat="50.660610" lon="6.180831">
        <ele>424.100000</ele>
        <time>2009-07-19T17:50:22Z</time>
      </trkpt>
      <trkpt lat="50.660589" lon="6.180862">
        <ele>424.600000</ele>
        <time>2009-07-19T17:50:25Z</time>
      </trkpt>
      <trkpt lat="50.660470" lon="6.180952">
        <ele>425.500000</ele>
        <time>2009-07-19T17:50:38Z</time>
      </trkpt>
      <trkpt lat="50.660272" lon="6.181093">
        <ele>426.500000</ele>
        <time>2009-07-19T17:51:00Z</time>
      </trkpt>
      <trkpt lat="50.660140" lon="6.181210">
        <ele>427.400000</ele>
        <time>2009-07-19T17:51:15Z</time>
      </trkpt>
      <trkpt lat="50.660083" lon="6.181244">
        <ele>427.900000</ele>
        <time>2009-07-19T17:51:21Z</time>
      </trkpt>
      <trkpt lat="50.660001" lon="6.181301">
        <ele>427.900000</ele>
        <time>2009-07-19T17:51:30Z</time>
      </trkpt>
      <trkpt lat="50.659861" lon="6.181423">
        <ele>428.900000</ele>
        <time>2009-07-19T17:51:46Z</time>
      </trkpt>
      <trkpt lat="50.659838" lon="6.181438">
        <ele>428.900000</ele>
        <time>2009-07-19T17:51:48Z</time>
      </trkpt>
      <trkpt lat="50.659684" lon="6.181592">
        <ele>430.300000</ele>
        <time>2009-07-19T17:52:07Z</time>
      </trkpt>
      <trkpt lat="50.659609" lon="6.181651">
        <ele>430.300000</ele>
        <time>2009-07-19T17:52:15Z</time>
      </trkpt>
      <trkpt lat="50.659451" lon="6.181797">
        <ele>431.300000</ele>
        <time>2009-07-19T17:52:33Z</time>
      </trkpt>
      <trkpt lat="50.659437" lon="6.181807">
        <ele>431.800000</ele>
        <time>2009-07-19T17:52:35Z</time>
      </trkpt>
      <trkpt lat="50.659398" lon="6.181815">
        <ele>431.800000</ele>
        <time>2009-07-19T17:52:39Z</time>
      </trkpt>
      <trkpt lat="50.659405" lon="6.181841">
        <ele>432.300000</ele>
        <time>2009-07-19T17:52:40Z</time>
      </trkpt>
      <trkpt lat="50.659358" lon="6.181753">
        <ele>433.200000</ele>
        <time>2009-07-19T17:52:48Z</time>
      </trkpt>
      <trkpt lat="50.659352" lon="6.181715">
        <ele>433.200000</ele>
        <time>2009-07-19T17:52:50Z</time>
      </trkpt>
      <trkpt lat="50.659324" lon="6.181486">
        <ele>434.200000</ele>
        <time>2009-07-19T17:53:05Z</time>
      </trkpt>
      <trkpt lat="50.659294" lon="6.181344">
        <ele>434.200000</ele>
        <time>2009-07-19T17:53:14Z</time>
      </trkpt>
      <trkpt lat="50.659236" lon="6.181076">
        <ele>435.100000</ele>
        <time>2009-07-19T17:53:32Z</time>
      </trkpt>
      <trkpt lat="50.659193" lon="6.180918">
        <ele>435.100000</ele>
        <time>2009-07-19T17:53:43Z</time>
      </trkpt>
      <trkpt lat="50.659184" lon="6.180897">
        <ele>435.600000</ele>
        <time>2009-07-19T17:53:45Z</time>
      </trkpt>
      <trkpt lat="50.659086" lon="6.180615">
        <ele>436.100000</ele>
        <time>2009-07-19T17:54:05Z</time>
      </trkpt>
      <trkpt lat="50.659093" lon="6.180532">
        <ele>436.600000</ele>
        <time>2009-07-19T17:54:10Z</time>
      </trkpt>
      <trkpt lat="50.659052" lon="6.180454">
        <ele>437.100000</ele>
        <time>2009-07-19T17:54:17Z</time>
      </trkpt>
      <trkpt lat="50.659015" lon="6.180338">
        <ele>437.500000</ele>
        <time>2009-07-19T17:54:25Z</time>
      </trkpt>
      <trkpt lat="50.659016" lon="6.180275">
        <ele>438.000000</ele>
        <time>2009-07-19T17:54:29Z</time>
      </trkpt>
      <trkpt lat="50.659015" lon="6.180147">
        <ele>438.000000</ele>
        <time>2009-07-19T17:54:37Z</time>
      </trkpt>
      <trkpt lat="50.658946" lon="6.179930">
        <ele>439.900000</ele>
        <time>2009-07-19T17:54:52Z</time>
      </trkpt>
      <trkpt lat="50.658927" lon="6.179780">
        <ele>441.900000</ele>
        <time>2009-07-19T17:55:02Z</time>
      </trkpt>
      <trkpt lat="50.658951" lon="6.179553">
        <ele>443.300000</ele>
        <time>2009-07-19T17:55:17Z</time>
      </trkpt>
      <trkpt lat="50.658940" lon="6.179387">
        <ele>443.800000</ele>
        <time>2009-07-19T17:55:27Z</time>
      </trkpt>
      <trkpt lat="50.658862" lon="6.179216">
        <ele>444.300000</ele>
        <time>2009-07-19T17:55:40Z</time>
      </trkpt>
      <trkpt lat="50.658855" lon="6.179201">
        <ele>444.300000</ele>
        <time>2009-07-19T17:55:42Z</time>
      </trkpt>
      <trkpt lat="50.658839" lon="6.179128">
        <ele>444.700000</ele>
        <time>2009-07-19T17:55:46Z</time>
      </trkpt>
      <trkpt lat="50.658816" lon="6.179071">
        <ele>444.700000</ele>
        <time>2009-07-19T17:55:51Z</time>
      </trkpt>
      <trkpt lat="50.658774" lon="6.179026">
        <ele>445.200000</ele>
        <time>2009-07-19T17:55:56Z</time>
      </trkpt>
      <trkpt lat="50.658666" lon="6.178838">
        <ele>444.700000</ele>
        <time>2009-07-19T17:56:12Z</time>
      </trkpt>
      <trkpt lat="50.658641" lon="6.178762">
        <ele>445.700000</ele>
        <time>2009-07-19T17:56:17Z</time>
      </trkpt>
      <trkpt lat="50.658645" lon="6.178496">
        <ele>446.200000</ele>
        <time>2009-07-19T17:56:34Z</time>
      </trkpt>
      <trkpt lat="50.658615" lon="6.178173">
        <ele>446.200000</ele>
        <time>2009-07-19T17:56:55Z</time>
      </trkpt>
      <trkpt lat="50.658475" lon="6.177865">
        <ele>446.200000</ele>
        <time>2009-07-19T17:57:19Z</time>
      </trkpt>
      <trkpt lat="50.658353" lon="6.177526">
        <ele>447.600000</ele>
        <time>2009-07-19T17:57:43Z</time>
      </trkpt>
      <trkpt lat="50.658253" lon="6.177198">
        <ele>447.600000</ele>
        <time>2009-07-19T17:58:06Z</time>
      </trkpt>
      <trkpt lat="50.658149" lon="6.176808">
        <ele>449.600000</ele>
        <time>2009-07-19T17:58:33Z</time>
      </trkpt>
      <trkpt lat="50.658129" lon="6.176496">
        <ele>449.600000</ele>
        <time>2009-07-19T17:58:53Z</time>
      </trkpt>
      <trkpt lat="50.658140" lon="6.176280">
        <ele>449.100000</ele>
        <time>2009-07-19T17:59:07Z</time>
      </trkpt>
      <trkpt lat="50.658130" lon="6.176010">
        <ele>447.600000</ele>
        <time>2009-07-19T17:59:24Z</time>
      </trkpt>
      <trkpt lat="50.658105" lon="6.175872">
        <ele>447.600000</ele>
        <time>2009-07-19T17:59:33Z</time>
      </trkpt>
      <trkpt lat="50.658105" lon="6.175744">
        <ele>447.600000</ele>
        <time>2009-07-19T17:59:41Z</time>
      </trkpt>
      <trkpt lat="50.658067" lon="6.175429">
        <ele>447.600000</ele>
        <time>2009-07-19T18:00:01Z</time>
      </trkpt>
      <trkpt lat="50.658011" lon="6.175167">
        <ele>447.600000</ele>
        <time>2009-07-19T18:00:19Z</time>
      </trkpt>
      <trkpt lat="50.657978" lon="6.174945">
        <ele>447.600000</ele>
        <time>2009-07-19T18:00:33Z</time>
      </trkpt>
      <trkpt lat="50.657968" lon="6.174832">
        <ele>447.600000</ele>
        <time>2009-07-19T18:00:40Z</time>
      </trkpt>
      <trkpt lat="50.657929" lon="6.174561">
        <ele>447.200000</ele>
        <time>2009-07-19T18:00:58Z</time>
      </trkpt>
      <trkpt lat="50.657919" lon="6.174375">
        <ele>447.200000</ele>
        <time>2009-07-19T18:01:10Z</time>
      </trkpt>
      <trkpt lat="50.657883" lon="6.174303">
        <ele>447.600000</ele>
        <time>2009-07-19T18:01:15Z</time>
      </trkpt>
      <trkpt lat="50.657816" lon="6.174299">
        <ele>448.600000</ele>
        <time>2009-07-19T18:01:22Z</time>
      </trkpt>
      <trkpt lat="50.657810" lon="6.174305">
        <ele>448.600000</ele>
        <time>2009-07-19T18:01:23Z</time>
      </trkpt>
      <trkpt lat="50.657679" lon="6.174416">
        <ele>449.600000</ele>
        <time>2009-07-19T18:01:38Z</time>
      </trkpt>
      <trkpt lat="50.657585" lon="6.174508">
        <ele>451.000000</ele>
        <time>2009-07-19T18:01:49Z</time>
      </trkpt>
      <trkpt lat="50.657504" lon="6.174518">
        <ele>451.000000</ele>
        <time>2009-07-19T18:01:57Z</time>
      </trkpt>
      <trkpt lat="50.657458" lon="6.174546">
        <ele>451.000000</ele>
        <time>2009-07-19T18:02:02Z</time>
      </trkpt>
      <trkpt lat="50.657342" lon="6.174617">
        <ele>452.900000</ele>
        <time>2009-07-19T18:02:14Z</time>
      </trkpt>
      <trkpt lat="50.657258" lon="6.174647">
        <ele>453.400000</ele>
        <time>2009-07-19T18:02:23Z</time>
      </trkpt>
      <trkpt lat="50.657179" lon="6.174624">
        <ele>453.900000</ele>
        <time>2009-07-19T18:02:31Z</time>
      </trkpt>
      <trkpt lat="50.657173" lon="6.174613">
        <ele>454.800000</ele>
        <time>2009-07-19T18:02:31Z</time>
      </trkpt>
      <trkpt lat="50.657088" lon="6.174491">
        <ele>454.400000</ele>
        <time>2009-07-19T18:02:43Z</time>
      </trkpt>
      <trkpt lat="50.657003" lon="6.174308">
        <ele>454.800000</ele>
        <time>2009-07-19T18:02:57Z</time>
      </trkpt>
      <trkpt lat="50.656985" lon="6.174255">
        <ele>454.800000</ele>
        <time>2009-07-19T18:03:01Z</time>
      </trkpt>
      <trkpt lat="50.656972" lon="6.174222">
        <ele>454.800000</ele>
        <time>2009-07-19T18:03:04Z</time>
      </trkpt>
      <trkpt lat="50.656888" lon="6.174026">
        <ele>455.300000</ele>
        <time>2009-07-19T18:03:19Z</time>
      </trkpt>
      <trkpt lat="50.656826" lon="6.173883">
        <ele>455.800000</ele>
        <time>2009-07-19T18:03:29Z</time>
      </trkpt>
      <trkpt lat="50.656753" lon="6.173734">
        <ele>455.800000</ele>
        <time>2009-07-19T18:03:41Z</time>
      </trkpt>
      <trkpt lat="50.656697" lon="6.173592">
        <ele>455.300000</ele>
        <time>2009-07-19T18:03:52Z</time>
      </trkpt>
      <trkpt lat="50.656637" lon="6.173479">
        <ele>455.300000</ele>
        <time>2009-07-19T18:04:01Z</time>
      </trkpt>
      <trkpt lat="50.656617" lon="6.173308">
        <ele>455.800000</ele>
        <time>2009-07-19T18:04:12Z</time>
      </trkpt>
      <trkpt lat="50.656531" lon="6.173156">
        <ele>456.300000</ele>
        <time>2009-07-19T18:04:25Z</time>
      </trkpt>
      <trkpt lat="50.656424" lon="6.173141">
        <ele>455.800000</ele>
        <time>2009-07-19T18:04:36Z</time>
      </trkpt>
      <trkpt lat="50.656340" lon="6.173161">
        <ele>455.800000</ele>
        <time>2009-07-19T18:04:44Z</time>
      </trkpt>
      <trkpt lat="50.656310" lon="6.173177">
        <ele>454.400000</ele>
        <time>2009-07-19T18:04:47Z</time>
      </trkpt>
      <trkpt lat="50.656290" lon="6.173182">
        <ele>457.700000</ele>
        <time>2009-07-19T18:04:49Z</time>
      </trkpt>
      <trkpt lat="50.656282" lon="6.173184">
        <ele>452.900000</ele>
        <time>2009-07-19T18:04:50Z</time>
      </trkpt>
      <trkpt lat="50.656275" lon="6.173186">
        <ele>456.800000</ele>
        <time>2009-07-19T18:04:51Z</time>
      </trkpt>
      <trkpt lat="50.656261" lon="6.173183">
        <ele>453.900000</ele>
        <time>2009-07-19T18:04:52Z</time>
      </trkpt>
      <trkpt lat="50.656267" lon="6.173183">
        <ele>457.200000</ele>
        <time>2009-07-19T18:04:53Z</time>
      </trkpt>
      <trkpt lat="50.656262" lon="6.173181">
        <ele>453.900000</ele>
        <time>2009-07-19T18:04:54Z</time>
      </trkpt>
      <trkpt lat="50.656259" lon="6.173184">
        <ele>457.200000</ele>
        <time>2009-07-19T18:04:54Z</time>
      </trkpt>
      <trkpt lat="50.656248" lon="6.173185">
        <ele>453.900000</ele>
        <time>2009-07-19T18:04:55Z</time>
      </trkpt>
      <trkpt lat="50.656268" lon="6.173193">
        <ele>457.200000</ele>
        <time>2009-07-19T18:04:57Z</time>
      </trkpt>
      <trkpt lat="50.656275" lon="6.173195">
        <ele>453.900000</ele>
        <time>2009-07-19T18:04:58Z</time>
      </trkpt>
      <trkpt lat="50.656316" lon="6.173205">
        <ele>457.200000</ele>
        <time>2009-07-19T18:05:02Z</time>
      </trkpt>
      <trkpt lat="50.656372" lon="6.173232">
        <ele>454.800000</ele>
        <time>2009-07-19T18:05:08Z</time>
      </trkpt>
      <trkpt lat="50.656366" lon="6.173104">
        <ele>454.800000</ele>
        <time>2009-07-19T18:05:16Z</time>
      </trkpt>
      <trkpt lat="50.656358" lon="6.173066">
        <ele>454.400000</ele>
        <time>2009-07-19T18:05:18Z</time>
      </trkpt>
      <trkpt lat="50.656380" lon="6.172996">
        <ele>454.400000</ele>
        <time>2009-07-19T18:05:23Z</time>
      </trkpt>
      <trkpt lat="50.656341" lon="6.173023">
        <ele>453.900000</ele>
        <time>2009-07-19T18:05:28Z</time>
      </trkpt>
      <trkpt lat="50.656314" lon="6.173119">
        <ele>453.400000</ele>
        <time>2009-07-19T18:05:34Z</time>
      </trkpt>
      <trkpt lat="50.656313" lon="6.173154">
        <ele>453.900000</ele>
        <time>2009-07-19T18:05:36Z</time>
      </trkpt>
      <trkpt lat="50.656289" lon="6.173165">
        <ele>453.400000</ele>
        <time>2009-07-19T18:05:39Z</time>
      </trkpt>
      <trkpt lat="50.656282" lon="6.173207">
        <ele>453.400000</ele>
        <time>2009-07-19T18:05:42Z</time>
      </trkpt>
      <trkpt lat="50.656313" lon="6.173238">
        <ele>453.400000</ele>
        <time>2009-07-19T18:05:45Z</time>
      </trkpt>
      <trkpt lat="50.656315" lon="6.173203">
        <ele>454.400000</ele>
        <time>2009-07-19T18:05:48Z</time>
      </trkpt>
      <trkpt lat="50.656328" lon="6.173146">
        <ele>453.900000</ele>
        <time>2009-07-19T18:05:51Z</time>
      </trkpt>
      <trkpt lat="50.656304" lon="6.173114">
        <ele>454.400000</ele>
        <time>2009-07-19T18:05:55Z</time>
      </trkpt>
      <trkpt lat="50.656293" lon="6.173009">
        <ele>453.900000</ele>
        <time>2009-07-19T18:06:01Z</time>
      </trkpt>
      <trkpt lat="50.656264" lon="6.172972">
        <ele>453.400000</ele>
        <time>2009-07-19T18:06:05Z</time>
      </trkpt>
      <trkpt lat="50.656149" lon="6.172829">
        <ele>453.900000</ele>
        <time>2009-07-19T18:06:20Z</time>
      </trkpt>
      <trkpt lat="50.656025" lon="6.172684">
        <ele>453.900000</ele>
        <time>2009-07-19T18:06:35Z</time>
      </trkpt>
      <trkpt lat="50.655931" lon="6.172602">
        <ele>454.400000</ele>
        <time>2009-07-19T18:06:46Z</time>
      </trkpt>
      <trkpt lat="50.655906" lon="6.172641">
        <ele>453.400000</ele>
        <time>2009-07-19T18:06:49Z</time>
      </trkpt>
      <trkpt lat="50.655907" lon="6.172654">
        <ele>453.900000</ele>
        <time>2009-07-19T18:06:50Z</time>
      </trkpt>
      <trkpt lat="50.656057" lon="6.172835">
        <ele>454.400000</ele>
        <time>2009-07-19T18:07:09Z</time>
      </trkpt>
      <trkpt lat="50.656209" lon="6.173028">
        <ele>453.400000</ele>
        <time>2009-07-19T18:07:28Z</time>
      </trkpt>
      <trkpt lat="50.656305" lon="6.173149">
        <ele>453.400000</ele>
        <time>2009-07-19T18:07:41Z</time>
      </trkpt>
      <trkpt lat="50.656324" lon="6.173229">
        <ele>453.400000</ele>
        <time>2009-07-19T18:07:46Z</time>
      </trkpt>
      <trkpt lat="50.656439" lon="6.173227">
        <ele>452.900000</ele>
        <time>2009-07-19T18:07:57Z</time>
      </trkpt>
      <trkpt lat="50.656472" lon="6.173222">
        <ele>452.400000</ele>
        <time>2009-07-19T18:08:01Z</time>
      </trkpt>
      <trkpt lat="50.656502" lon="6.173289">
        <ele>452.400000</ele>
        <time>2009-07-19T18:08:06Z</time>
      </trkpt>
      <trkpt lat="50.656526" lon="6.173455">
        <ele>452.400000</ele>
        <time>2009-07-19T18:08:17Z</time>
      </trkpt>
      <trkpt lat="50.656531" lon="6.173473">
        <ele>452.400000</ele>
        <time>2009-07-19T18:08:18Z</time>
      </trkpt>
      <trkpt lat="50.656549" lon="6.173544">
        <ele>452.900000</ele>
        <time>2009-07-19T18:08:23Z</time>
      </trkpt>
      <trkpt lat="50.656559" lon="6.173578">
        <ele>452.900000</ele>
        <time>2009-07-19T18:08:25Z</time>
      </trkpt>
      <trkpt lat="50.656576" lon="6.173622">
        <ele>452.900000</ele>
        <time>2009-07-19T18:08:28Z</time>
      </trkpt>
      <trkpt lat="50.656653" lon="6.173851">
        <ele>452.900000</ele>
        <time>2009-07-19T18:08:45Z</time>
      </trkpt>
      <trkpt lat="50.656724" lon="6.174045">
        <ele>453.400000</ele>
        <time>2009-07-19T18:08:59Z</time>
      </trkpt>
      <trkpt lat="50.656782" lon="6.174206">
        <ele>453.400000</ele>
        <time>2009-07-19T18:09:11Z</time>
      </trkpt>
      <trkpt lat="50.656809" lon="6.174280">
        <ele>453.400000</ele>
        <time>2009-07-19T18:09:16Z</time>
      </trkpt>
      <trkpt lat="50.656859" lon="6.174444">
        <ele>452.900000</ele>
        <time>2009-07-19T18:09:27Z</time>
      </trkpt>
      <trkpt lat="50.656911" lon="6.174620">
        <ele>452.400000</ele>
        <time>2009-07-19T18:09:40Z</time>
      </trkpt>
      <trkpt lat="50.656940" lon="6.174695">
        <ele>452.400000</ele>
        <time>2009-07-19T18:09:45Z</time>
      </trkpt>
      <trkpt lat="50.656982" lon="6.174772">
        <ele>452.400000</ele>
        <time>2009-07-19T18:09:52Z</time>
      </trkpt>
      <trkpt lat="50.657065" lon="6.174991">
        <ele>452.000000</ele>
        <time>2009-07-19T18:10:08Z</time>
      </trkpt>
      <trkpt lat="50.657120" lon="6.175080">
        <ele>452.000000</ele>
        <time>2009-07-19T18:10:16Z</time>
      </trkpt>
      <trkpt lat="50.657142" lon="6.175147">
        <ele>451.500000</ele>
        <time>2009-07-19T18:10:21Z</time>
      </trkpt>
      <trkpt lat="50.657199" lon="6.175245">
        <ele>451.000000</ele>
        <time>2009-07-19T18:10:29Z</time>
      </trkpt>
      <trkpt lat="50.657272" lon="6.175416">
        <ele>451.000000</ele>
        <time>2009-07-19T18:10:42Z</time>
      </trkpt>
      <trkpt lat="50.657313" lon="6.175516">
        <ele>451.000000</ele>
        <time>2009-07-19T18:10:49Z</time>
      </trkpt>
      <trkpt lat="50.657386" lon="6.175750">
        <ele>450.000000</ele>
        <time>2009-07-19T18:11:06Z</time>
      </trkpt>
      <trkpt lat="50.657459" lon="6.175898">
        <ele>450.000000</ele>
        <time>2009-07-19T18:11:18Z</time>
      </trkpt>
      <trkpt lat="50.657499" lon="6.176029">
        <ele>449.600000</ele>
        <time>2009-07-19T18:11:27Z</time>
      </trkpt>
      <trkpt lat="50.657503" lon="6.176070">
        <ele>449.600000</ele>
        <time>2009-07-19T18:11:30Z</time>
      </trkpt>
      <trkpt lat="50.657549" lon="6.176270">
        <ele>449.600000</ele>
        <time>2009-07-19T18:11:43Z</time>
      </trkpt>
      <trkpt lat="50.657674" lon="6.176511">
        <ele>449.100000</ele>
        <time>2009-07-19T18:12:03Z</time>
      </trkpt>
      <trkpt lat="50.657712" lon="6.176668">
        <ele>448.600000</ele>
        <time>2009-07-19T18:12:13Z</time>
      </trkpt>
      <trkpt lat="50.657796" lon="6.176847">
        <ele>449.100000</ele>
        <time>2009-07-19T18:12:27Z</time>
      </trkpt>
      <trkpt lat="50.657825" lon="6.176904">
        <ele>448.600000</ele>
        <time>2009-07-19T18:12:32Z</time>
      </trkpt>
      <trkpt lat="50.657887" lon="6.177057">
        <ele>448.100000</ele>
        <time>2009-07-19T18:12:43Z</time>
      </trkpt>
      <trkpt lat="50.657900" lon="6.177100">
        <ele>447.600000</ele>
        <time>2009-07-19T18:12:46Z</time>
      </trkpt>
      <trkpt lat="50.657988" lon="6.177331">
        <ele>448.100000</ele>
        <time>2009-07-19T18:13:04Z</time>
      </trkpt>
      <trkpt lat="50.658046" lon="6.177513">
        <ele>448.100000</ele>
        <time>2009-07-19T18:13:16Z</time>
      </trkpt>
      <trkpt lat="50.658125" lon="6.177753">
        <ele>446.700000</ele>
        <time>2009-07-19T18:13:34Z</time>
      </trkpt>
      <trkpt lat="50.658195" lon="6.177982">
        <ele>446.700000</ele>
        <time>2009-07-19T18:13:50Z</time>
      </trkpt>
      <trkpt lat="50.658293" lon="6.178190">
        <ele>446.700000</ele>
        <time>2009-07-19T18:14:06Z</time>
      </trkpt>
      <trkpt lat="50.658334" lon="6.178353">
        <ele>446.200000</ele>
        <time>2009-07-19T18:14:17Z</time>
      </trkpt>
      <trkpt lat="50.658365" lon="6.178457">
        <ele>446.200000</ele>
        <time>2009-07-19T18:14:24Z</time>
      </trkpt>
      <trkpt lat="50.658413" lon="6.178599">
        <ele>444.700000</ele>
        <time>2009-07-19T18:14:34Z</time>
      </trkpt>
      <trkpt lat="50.658507" lon="6.178781">
        <ele>444.700000</ele>
        <time>2009-07-19T18:14:49Z</time>
      </trkpt>
      <trkpt lat="50.658522" lon="6.178902">
        <ele>443.300000</ele>
        <time>2009-07-19T18:14:57Z</time>
      </trkpt>
      <trkpt lat="50.658530" lon="6.178984">
        <ele>443.800000</ele>
        <time>2009-07-19T18:15:02Z</time>
      </trkpt>
      <trkpt lat="50.658580" lon="6.179195">
        <ele>443.300000</ele>
        <time>2009-07-19T18:15:17Z</time>
      </trkpt>
      <trkpt lat="50.658592" lon="6.179222">
        <ele>442.800000</ele>
        <time>2009-07-19T18:15:19Z</time>
      </trkpt>
      <trkpt lat="50.658631" lon="6.179335">
        <ele>442.300000</ele>
        <time>2009-07-19T18:15:27Z</time>
      </trkpt>
      <trkpt lat="50.658641" lon="6.179375">
        <ele>442.300000</ele>
        <time>2009-07-19T18:15:30Z</time>
      </trkpt>
      <trkpt lat="50.658708" lon="6.179631">
        <ele>440.900000</ele>
        <time>2009-07-19T18:15:47Z</time>
      </trkpt>
      <trkpt lat="50.658709" lon="6.179761">
        <ele>440.400000</ele>
        <time>2009-07-19T18:15:55Z</time>
      </trkpt>
      <trkpt lat="50.658726" lon="6.179807">
        <ele>439.500000</ele>
        <time>2009-07-19T18:15:59Z</time>
      </trkpt>
      <trkpt lat="50.658773" lon="6.180093">
        <ele>438.500000</ele>
        <time>2009-07-19T18:16:17Z</time>
      </trkpt>
      <trkpt lat="50.658802" lon="6.180324">
        <ele>437.100000</ele>
        <time>2009-07-19T18:16:32Z</time>
      </trkpt>
      <trkpt lat="50.658849" lon="6.180397">
        <ele>436.600000</ele>
        <time>2009-07-19T18:16:39Z</time>
      </trkpt>
      <trkpt lat="50.658934" lon="6.180605">
        <ele>436.100000</ele>
        <time>2009-07-19T18:16:54Z</time>
      </trkpt>
      <trkpt lat="50.658945" lon="6.180706">
        <ele>436.100000</ele>
        <time>2009-07-19T18:17:01Z</time>
      </trkpt>
      <trkpt lat="50.658964" lon="6.180818">
        <ele>435.600000</ele>
        <time>2009-07-19T18:17:08Z</time>
      </trkpt>
      <trkpt lat="50.658992" lon="6.180909">
        <ele>435.100000</ele>
        <time>2009-07-19T18:17:15Z</time>
      </trkpt>
      <trkpt lat="50.658995" lon="6.181010">
        <ele>435.600000</ele>
        <time>2009-07-19T18:17:21Z</time>
      </trkpt>
      <trkpt lat="50.658986" lon="6.181161">
        <ele>433.700000</ele>
        <time>2009-07-19T18:17:31Z</time>
      </trkpt>
      <trkpt lat="50.659048" lon="6.181426">
        <ele>434.200000</ele>
        <time>2009-07-19T18:17:48Z</time>
      </trkpt>
      <trkpt lat="50.659061" lon="6.181489">
        <ele>434.200000</ele>
        <time>2009-07-19T18:17:53Z</time>
      </trkpt>
      <trkpt lat="50.659126" lon="6.181729">
        <ele>433.200000</ele>
        <time>2009-07-19T18:18:09Z</time>
      </trkpt>
      <trkpt lat="50.659182" lon="6.181865">
        <ele>432.700000</ele>
        <time>2009-07-19T18:18:19Z</time>
      </trkpt>
      <trkpt lat="50.659187" lon="6.181930">
        <ele>433.700000</ele>
        <time>2009-07-19T18:18:23Z</time>
      </trkpt>
      <trkpt lat="50.659321" lon="6.182079">
        <ele>433.700000</ele>
        <time>2009-07-19T18:18:40Z</time>
      </trkpt>
      <trkpt lat="50.659382" lon="6.182149">
        <ele>434.200000</ele>
        <time>2009-07-19T18:18:47Z</time>
      </trkpt>
      <trkpt lat="50.659384" lon="6.182160">
        <ele>434.200000</ele>
        <time>2009-07-19T18:18:48Z</time>
      </trkpt>
      <trkpt lat="50.659418" lon="6.182243">
        <ele>433.700000</ele>
        <time>2009-07-19T18:18:54Z</time>
      </trkpt>
      <trkpt lat="50.659412" lon="6.182202">
        <ele>433.700000</ele>
        <time>2009-07-19T18:18:57Z</time>
      </trkpt>
      <trkpt lat="50.659429" lon="6.182343">
        <ele>432.700000</ele>
        <time>2009-07-19T18:19:06Z</time>
      </trkpt>
      <trkpt lat="50.659415" lon="6.182507">
        <ele>431.800000</ele>
        <time>2009-07-19T18:19:16Z</time>
      </trkpt>
      <trkpt lat="50.659412" lon="6.182552">
        <ele>431.800000</ele>
        <time>2009-07-19T18:19:19Z</time>
      </trkpt>
      <trkpt lat="50.659404" lon="6.182590">
        <ele>431.800000</ele>
        <time>2009-07-19T18:19:22Z</time>
      </trkpt>
      <trkpt lat="50.659404" lon="6.182640">
        <ele>430.800000</ele>
        <time>2009-07-19T18:19:25Z</time>
      </trkpt>
      <trkpt lat="50.659441" lon="6.182854">
        <ele>430.800000</ele>
        <time>2009-07-19T18:19:39Z</time>
      </trkpt>
      <trkpt lat="50.659446" lon="6.182921">
        <ele>430.800000</ele>
        <time>2009-07-19T18:19:43Z</time>
      </trkpt>
      <trkpt lat="50.659470" lon="6.183036">
        <ele>430.800000</ele>
        <time>2009-07-19T18:19:51Z</time>
      </trkpt>
      <trkpt lat="50.659504" lon="6.183151">
        <ele>430.800000</ele>
        <time>2009-07-19T18:19:59Z</time>
      </trkpt>
      <trkpt lat="50.659561" lon="6.183354">
        <ele>431.300000</ele>
        <time>2009-07-19T18:20:13Z</time>
      </trkpt>
      <trkpt lat="50.659604" lon="6.183652">
        <ele>430.800000</ele>
        <time>2009-07-19T18:20:32Z</time>
      </trkpt>
      <trkpt lat="50.659685" lon="6.183867">
        <ele>430.800000</ele>
        <time>2009-07-19T18:20:48Z</time>
      </trkpt>
      <trkpt lat="50.659770" lon="6.184128">
        <ele>431.800000</ele>
        <time>2009-07-19T18:21:07Z</time>
      </trkpt>
      <trkpt lat="50.659818" lon="6.184344">
        <ele>432.300000</ele>
        <time>2009-07-19T18:21:21Z</time>
      </trkpt>
      <trkpt lat="50.659872" lon="6.184576">
        <ele>431.800000</ele>
        <time>2009-07-19T18:21:37Z</time>
      </trkpt>
      <trkpt lat="50.659942" lon="6.184810">
        <ele>432.300000</ele>
        <time>2009-07-19T18:21:53Z</time>
      </trkpt>
      <trkpt lat="50.659965" lon="6.184960">
        <ele>432.700000</ele>
        <time>2009-07-19T18:22:03Z</time>
      </trkpt>
      <trkpt lat="50.659984" lon="6.185034">
        <ele>432.700000</ele>
        <time>2009-07-19T18:22:08Z</time>
      </trkpt>
      <trkpt lat="50.660035" lon="6.185335">
        <ele>432.700000</ele>
        <time>2009-07-19T18:22:28Z</time>
      </trkpt>
      <trkpt lat="50.660037" lon="6.185375">
        <ele>432.700000</ele>
        <time>2009-07-19T18:22:30Z</time>
      </trkpt>
      <trkpt lat="50.660104" lon="6.185633">
        <ele>433.200000</ele>
        <time>2009-07-19T18:22:48Z</time>
      </trkpt>
      <trkpt lat="50.660160" lon="6.185849">
        <ele>433.200000</ele>
        <time>2009-07-19T18:23:03Z</time>
      </trkpt>
      <trkpt lat="50.660168" lon="6.185870">
        <ele>433.700000</ele>
        <time>2009-07-19T18:23:04Z</time>
      </trkpt>
      <trkpt lat="50.660246" lon="6.186197">
        <ele>433.700000</ele>
        <time>2009-07-19T18:23:26Z</time>
      </trkpt>
      <trkpt lat="50.660288" lon="6.186354">
        <ele>434.200000</ele>
        <time>2009-07-19T18:23:37Z</time>
      </trkpt>
      <trkpt lat="50.660300" lon="6.186441">
        <ele>434.200000</ele>
        <time>2009-07-19T18:23:43Z</time>
      </trkpt>
      <trkpt lat="50.660367" lon="6.186775">
        <ele>434.200000</ele>
        <time>2009-07-19T18:24:05Z</time>
      </trkpt>
      <trkpt lat="50.660443" lon="6.187118">
        <ele>435.600000</ele>
        <time>2009-07-19T18:24:28Z</time>
      </trkpt>
      <trkpt lat="50.660508" lon="6.187421">
        <ele>436.600000</ele>
        <time>2009-07-19T18:24:48Z</time>
      </trkpt>
      <trkpt lat="50.660565" lon="6.187674">
        <ele>437.500000</ele>
        <time>2009-07-19T18:25:05Z</time>
      </trkpt>
      <trkpt lat="50.660642" lon="6.187942">
        <ele>437.500000</ele>
        <time>2009-07-19T18:25:23Z</time>
      </trkpt>
      <trkpt lat="50.660756" lon="6.188151">
        <ele>438.000000</ele>
        <time>2009-07-19T18:25:41Z</time>
      </trkpt>
      <trkpt lat="50.660893" lon="6.188383">
        <ele>438.000000</ele>
        <time>2009-07-19T18:26:01Z</time>
      </trkpt>
      <trkpt lat="50.661001" lon="6.188503">
        <ele>437.500000</ele>
        <time>2009-07-19T18:26:14Z</time>
      </trkpt>
      <trkpt lat="50.661027" lon="6.188582">
        <ele>438.000000</ele>
        <time>2009-07-19T18:26:20Z</time>
      </trkpt>
      <trkpt lat="50.661060" lon="6.188927">
        <ele>439.000000</ele>
        <time>2009-07-19T18:26:42Z</time>
      </trkpt>
      <trkpt lat="50.660966" lon="6.189225">
        <ele>439.900000</ele>
        <time>2009-07-19T18:27:03Z</time>
      </trkpt>
      <trkpt lat="50.660852" lon="6.189288">
        <ele>440.900000</ele>
        <time>2009-07-19T18:27:15Z</time>
      </trkpt>
      <trkpt lat="50.660726" lon="6.189494">
        <ele>442.300000</ele>
        <time>2009-07-19T18:27:33Z</time>
      </trkpt>
      <trkpt lat="50.660602" lon="6.189723">
        <ele>443.300000</ele>
        <time>2009-07-19T18:27:52Z</time>
      </trkpt>
      <trkpt lat="50.660529" lon="6.189870">
        <ele>443.800000</ele>
        <time>2009-07-19T18:28:04Z</time>
      </trkpt>
      <trkpt lat="50.660563" lon="6.189916">
        <ele>443.300000</ele>
        <time>2009-07-19T18:28:08Z</time>
      </trkpt>
      <trkpt lat="50.660552" lon="6.189939">
        <ele>443.300000</ele>
        <time>2009-07-19T18:28:10Z</time>
      </trkpt>
      <trkpt lat="50.660557" lon="6.189984">
        <ele>443.300000</ele>
        <time>2009-07-19T18:28:13Z</time>
      </trkpt>
      <trkpt lat="50.660538" lon="6.190034">
        <ele>443.300000</ele>
        <time>2009-07-19T18:28:17Z</time>
      </trkpt>
      <trkpt lat="50.660468" lon="6.190100">
        <ele>443.800000</ele>
        <time>2009-07-19T18:28:25Z</time>
      </trkpt>
      <trkpt lat="50.660423" lon="6.190135">
        <ele>443.300000</ele>
        <time>2009-07-19T18:28:30Z</time>
      </trkpt>
      <trkpt lat="50.660264" lon="6.190280">
        <ele>443.800000</ele>
        <time>2009-07-19T18:28:48Z</time>
      </trkpt>
      <trkpt lat="50.660072" lon="6.190370">
        <ele>442.800000</ele>
        <time>2009-07-19T18:29:08Z</time>
      </trkpt>
      <trkpt lat="50.659926" lon="6.190509">
        <ele>443.800000</ele>
        <time>2009-07-19T18:29:25Z</time>
      </trkpt>
      <trkpt lat="50.659874" lon="6.190584">
        <ele>443.800000</ele>
        <time>2009-07-19T18:29:32Z</time>
      </trkpt>
      <trkpt lat="50.659690" lon="6.190711">
        <ele>442.300000</ele>
        <time>2009-07-19T18:29:52Z</time>
      </trkpt>
      <trkpt lat="50.659476" lon="6.190897">
        <ele>441.400000</ele>
        <time>2009-07-19T18:30:16Z</time>
      </trkpt>
      <trkpt lat="50.659317" lon="6.191079">
        <ele>440.900000</ele>
        <time>2009-07-19T18:30:36Z</time>
      </trkpt>
      <trkpt lat="50.659164" lon="6.191266">
        <ele>439.900000</ele>
        <time>2009-07-19T18:30:55Z</time>
      </trkpt>
      <trkpt lat="50.659021" lon="6.191453">
        <ele>440.900000</ele>
        <time>2009-07-19T18:31:14Z</time>
      </trkpt>
      <trkpt lat="50.658979" lon="6.191513">
        <ele>439.500000</ele>
        <time>2009-07-19T18:31:19Z</time>
      </trkpt>
      <trkpt lat="50.658956" lon="6.191523">
        <ele>439.900000</ele>
        <time>2009-07-19T18:31:22Z</time>
      </trkpt>
      <trkpt lat="50.658813" lon="6.191641">
        <ele>439.000000</ele>
        <time>2009-07-19T18:31:38Z</time>
      </trkpt>
      <trkpt lat="50.658627" lon="6.191808">
        <ele>438.500000</ele>
        <time>2009-07-19T18:31:59Z</time>
      </trkpt>
      <trkpt lat="50.658490" lon="6.191856">
        <ele>439.000000</ele>
        <time>2009-07-19T18:32:13Z</time>
      </trkpt>
      <trkpt lat="50.658355" lon="6.191935">
        <ele>438.000000</ele>
        <time>2009-07-19T18:32:28Z</time>
      </trkpt>
      <trkpt lat="50.658292" lon="6.191949">
        <ele>438.500000</ele>
        <time>2009-07-19T18:32:34Z</time>
      </trkpt>
      <trkpt lat="50.658140" lon="6.191983">
        <ele>438.500000</ele>
        <time>2009-07-19T18:32:49Z</time>
      </trkpt>
      <trkpt lat="50.657970" lon="6.192062">
        <ele>438.000000</ele>
        <time>2009-07-19T18:33:07Z</time>
      </trkpt>
      <trkpt lat="50.657817" lon="6.192150">
        <ele>436.600000</ele>
        <time>2009-07-19T18:33:23Z</time>
      </trkpt>
      <trkpt lat="50.657698" lon="6.192249">
        <ele>436.100000</ele>
        <time>2009-07-19T18:33:37Z</time>
      </trkpt>
      <trkpt lat="50.657537" lon="6.192322">
        <ele>434.200000</ele>
        <time>2009-07-19T18:33:53Z</time>
      </trkpt>
      <trkpt lat="50.657394" lon="6.192380">
        <ele>434.200000</ele>
        <time>2009-07-19T18:34:08Z</time>
      </trkpt>
      <trkpt lat="50.657206" lon="6.192468">
        <ele>432.700000</ele>
        <time>2009-07-19T18:34:27Z</time>
      </trkpt>
      <trkpt lat="50.656970" lon="6.192690">
        <ele>431.300000</ele>
        <time>2009-07-19T18:34:55Z</time>
      </trkpt>
      <trkpt lat="50.656739" lon="6.192898">
        <ele>430.300000</ele>
        <time>2009-07-19T18:35:21Z</time>
      </trkpt>
      <trkpt lat="50.656603" lon="6.193008">
        <ele>428.400000</ele>
        <time>2009-07-19T18:35:37Z</time>
      </trkpt>
      <trkpt lat="50.656473" lon="6.193086">
        <ele>427.400000</ele>
        <time>2009-07-19T18:35:51Z</time>
      </trkpt>
      <trkpt lat="50.656340" lon="6.193177">
        <ele>427.000000</ele>
        <time>2009-07-19T18:36:05Z</time>
      </trkpt>
      <trkpt lat="50.656305" lon="6.193210">
        <ele>426.500000</ele>
        <time>2009-07-19T18:36:09Z</time>
      </trkpt>
      <trkpt lat="50.656247" lon="6.193228">
        <ele>426.000000</ele>
        <time>2009-07-19T18:36:15Z</time>
      </trkpt>
      <trkpt lat="50.656070" lon="6.193315">
        <ele>425.500000</ele>
        <time>2009-07-19T18:36:33Z</time>
      </trkpt>
      <trkpt lat="50.655876" lon="6.193438">
        <ele>425.000000</ele>
        <time>2009-07-19T18:36:54Z</time>
      </trkpt>
      <trkpt lat="50.655853" lon="6.193484">
        <ele>425.500000</ele>
        <time>2009-07-19T18:36:58Z</time>
      </trkpt>
      <trkpt lat="50.655757" lon="6.193537">
        <ele>425.000000</ele>
        <time>2009-07-19T18:37:08Z</time>
      </trkpt>
      <trkpt lat="50.655636" lon="6.193576">
        <ele>423.600000</ele>
        <time>2009-07-19T18:37:20Z</time>
      </trkpt>
      <trkpt lat="50.655485" lon="6.193675">
        <ele>422.200000</ele>
        <time>2009-07-19T18:37:37Z</time>
      </trkpt>
      <trkpt lat="50.655366" lon="6.193773">
        <ele>421.700000</ele>
        <time>2009-07-19T18:37:50Z</time>
      </trkpt>
      <trkpt lat="50.655180" lon="6.193885">
        <ele>420.200000</ele>
        <time>2009-07-19T18:38:10Z</time>
      </trkpt>
      <trkpt lat="50.655039" lon="6.194003">
        <ele>418.800000</ele>
        <time>2009-07-19T18:38:26Z</time>
      </trkpt>
      <trkpt lat="50.654893" lon="6.194114">
        <ele>417.400000</ele>
        <time>2009-07-19T18:38:42Z</time>
      </trkpt>
      <trkpt lat="50.654752" lon="6.194201">
        <ele>416.900000</ele>
        <time>2009-07-19T18:38:57Z</time>
      </trkpt>
      <trkpt lat="50.654625" lon="6.194279">
        <ele>415.400000</ele>
        <time>2009-07-19T18:39:11Z</time>
      </trkpt>
      <trkpt lat="50.654450" lon="6.194367">
        <ele>414.000000</ele>
        <time>2009-07-19T18:39:29Z</time>
      </trkpt>
      <trkpt lat="50.654313" lon="6.194485">
        <ele>413.500000</ele>
        <time>2009-07-19T18:39:45Z</time>
      </trkpt>
      <trkpt lat="50.654209" lon="6.194571">
        <ele>412.500000</ele>
        <time>2009-07-19T18:39:56Z</time>
      </trkpt>
      <trkpt lat="50.654091" lon="6.194680">
        <ele>411.600000</ele>
        <time>2009-07-19T18:40:10Z</time>
      </trkpt>
      <trkpt lat="50.654066" lon="6.194706">
        <ele>410.600000</ele>
        <time>2009-07-19T18:40:13Z</time>
      </trkpt>
      <trkpt lat="50.653957" lon="6.194822">
        <ele>409.200000</ele>
        <time>2009-07-19T18:40:26Z</time>
      </trkpt>
      <trkpt lat="50.653917" lon="6.194846">
        <ele>409.200000</ele>
        <time>2009-07-19T18:40:30Z</time>
      </trkpt>
      <trkpt lat="50.653778" lon="6.194976">
        <ele>407.700000</ele>
        <time>2009-07-19T18:40:46Z</time>
      </trkpt>
      <trkpt lat="50.653612" lon="6.195125">
        <ele>405.800000</ele>
        <time>2009-07-19T18:41:05Z</time>
      </trkpt>
      <trkpt lat="50.653472" lon="6.195296">
        <ele>403.400000</ele>
        <time>2009-07-19T18:41:23Z</time>
      </trkpt>
      <trkpt lat="50.653318" lon="6.195433">
        <ele>401.000000</ele>
        <time>2009-07-19T18:41:41Z</time>
      </trkpt>
      <trkpt lat="50.653305" lon="6.195462">
        <ele>401.000000</ele>
        <time>2009-07-19T18:41:43Z</time>
      </trkpt>
      <trkpt lat="50.653257" lon="6.195497">
        <ele>400.000000</ele>
        <time>2009-07-19T18:41:48Z</time>
      </trkpt>
      <trkpt lat="50.653121" lon="6.195626">
        <ele>397.200000</ele>
        <time>2009-07-19T18:42:04Z</time>
      </trkpt>
      <trkpt lat="50.653008" lon="6.195726">
        <ele>395.200000</ele>
        <time>2009-07-19T18:42:17Z</time>
      </trkpt>
      <trkpt lat="50.652982" lon="6.195834">
        <ele>394.800000</ele>
        <time>2009-07-19T18:42:24Z</time>
      </trkpt>
      <trkpt lat="50.653076" lon="6.196008">
        <ele>396.200000</ele>
        <time>2009-07-19T18:42:39Z</time>
      </trkpt>
      <trkpt lat="50.653209" lon="6.196190">
        <ele>396.200000</ele>
        <time>2009-07-19T18:42:56Z</time>
      </trkpt>
      <trkpt lat="50.653417" lon="6.196466">
        <ele>395.200000</ele>
        <time>2009-07-19T18:43:23Z</time>
      </trkpt>
      <trkpt lat="50.653562" lon="6.196711">
        <ele>395.200000</ele>
        <time>2009-07-19T18:43:45Z</time>
      </trkpt>
      <trkpt lat="50.653708" lon="6.197095">
        <ele>393.300000</ele>
        <time>2009-07-19T18:44:13Z</time>
      </trkpt>
      <trkpt lat="50.653803" lon="6.197319">
        <ele>392.800000</ele>
        <time>2009-07-19T18:44:30Z</time>
      </trkpt>
      <trkpt lat="50.653814" lon="6.197332">
        <ele>392.800000</ele>
        <time>2009-07-19T18:44:31Z</time>
      </trkpt>
      <trkpt lat="50.653949" lon="6.197559">
        <ele>391.900000</ele>
        <time>2009-07-19T18:44:51Z</time>
      </trkpt>
      <trkpt lat="50.654035" lon="6.197688">
        <ele>391.900000</ele>
        <time>2009-07-19T18:45:03Z</time>
      </trkpt>
      <trkpt lat="50.654135" lon="6.197800">
        <ele>392.800000</ele>
        <time>2009-07-19T18:45:15Z</time>
      </trkpt>
      <trkpt lat="50.654257" lon="6.197891">
        <ele>393.300000</ele>
        <time>2009-07-19T18:45:28Z</time>
      </trkpt>
      <trkpt lat="50.654278" lon="6.197903">
        <ele>393.300000</ele>
        <time>2009-07-19T18:45:31Z</time>
      </trkpt>
      <trkpt lat="50.654377" lon="6.197971">
        <ele>394.800000</ele>
        <time>2009-07-19T18:45:41Z</time>
      </trkpt>
      <trkpt lat="50.654425" lon="6.197974">
        <ele>394.800000</ele>
        <time>2009-07-19T18:45:46Z</time>
      </trkpt>
      <trkpt lat="50.654423" lon="6.197997">
        <ele>395.200000</ele>
        <time>2009-07-19T18:45:48Z</time>
      </trkpt>
      <trkpt lat="50.654423" lon="6.198005">
        <ele>394.300000</ele>
        <time>2009-07-19T18:45:48Z</time>
      </trkpt>
      <trkpt lat="50.654431" lon="6.197987">
        <ele>398.100000</ele>
        <time>2009-07-19T18:45:50Z</time>
      </trkpt>
      <trkpt lat="50.654432" lon="6.197983">
        <ele>394.300000</ele>
        <time>2009-07-19T18:45:50Z</time>
      </trkpt>
      <trkpt lat="50.654455" lon="6.197966">
        <ele>394.300000</ele>
        <time>2009-07-19T18:45:52Z</time>
      </trkpt>
      <trkpt lat="50.654469" lon="6.198004">
        <ele>392.800000</ele>
        <time>2009-07-19T18:45:55Z</time>
      </trkpt>
      <trkpt lat="50.654490" lon="6.198000">
        <ele>394.300000</ele>
        <time>2009-07-19T18:45:57Z</time>
      </trkpt>
      <trkpt lat="50.654440" lon="6.197954">
        <ele>393.800000</ele>
        <time>2009-07-19T18:46:03Z</time>
      </trkpt>
      <trkpt lat="50.654502" lon="6.198057">
        <ele>393.300000</ele>
        <time>2009-07-19T18:46:12Z</time>
      </trkpt>
      <trkpt lat="50.654503" lon="6.198062">
        <ele>392.800000</ele>
        <time>2009-07-19T18:46:12Z</time>
      </trkpt>
      <trkpt lat="50.654486" lon="6.197964">
        <ele>393.800000</ele>
        <time>2009-07-19T18:46:19Z</time>
      </trkpt>
      <trkpt lat="50.654532" lon="6.197976">
        <ele>394.800000</ele>
        <time>2009-07-19T18:46:24Z</time>
      </trkpt>
      <trkpt lat="50.654669" lon="6.198007">
        <ele>396.200000</ele>
        <time>2009-07-19T18:46:37Z</time>
      </trkpt>
      <trkpt lat="50.654777" lon="6.198038">
        <ele>398.100000</ele>
        <time>2009-07-19T18:46:48Z</time>
      </trkpt>
      <trkpt lat="50.654786" lon="6.198034">
        <ele>398.100000</ele>
        <time>2009-07-19T18:46:49Z</time>
      </trkpt>
      <trkpt lat="50.654904" lon="6.198032">
        <ele>399.600000</ele>
        <time>2009-07-19T18:47:01Z</time>
      </trkpt>
      <trkpt lat="50.654997" lon="6.198009">
        <ele>400.500000</ele>
        <time>2009-07-19T18:47:10Z</time>
      </trkpt>
      <trkpt lat="50.655087" lon="6.198064">
        <ele>402.000000</ele>
        <time>2009-07-19T18:47:20Z</time>
      </trkpt>
      <trkpt lat="50.655253" lon="6.198167">
        <ele>403.900000</ele>
        <time>2009-07-19T18:47:38Z</time>
      </trkpt>
      <trkpt lat="50.655415" lon="6.198355">
        <ele>405.300000</ele>
        <time>2009-07-19T18:47:58Z</time>
      </trkpt>
      <trkpt lat="50.655537" lon="6.198473">
        <ele>405.300000</ele>
        <time>2009-07-19T18:48:12Z</time>
      </trkpt>
      <trkpt lat="50.655673" lon="6.198606">
        <ele>405.800000</ele>
        <time>2009-07-19T18:48:28Z</time>
      </trkpt>
      <trkpt lat="50.655797" lon="6.198779">
        <ele>405.800000</ele>
        <time>2009-07-19T18:48:45Z</time>
      </trkpt>
      <trkpt lat="50.655844" lon="6.198842">
        <ele>405.300000</ele>
        <time>2009-07-19T18:48:51Z</time>
      </trkpt>
      <trkpt lat="50.655918" lon="6.198953">
        <ele>405.300000</ele>
        <time>2009-07-19T18:49:01Z</time>
      </trkpt>
      <trkpt lat="50.656061" lon="6.199190">
        <ele>405.800000</ele>
        <time>2009-07-19T18:49:22Z</time>
      </trkpt>
      <trkpt lat="50.656178" lon="6.199441">
        <ele>406.300000</ele>
        <time>2009-07-19T18:49:41Z</time>
      </trkpt>
      <trkpt lat="50.656344" lon="6.199718">
        <ele>405.800000</ele>
        <time>2009-07-19T18:50:05Z</time>
      </trkpt>
      <trkpt lat="50.656446" lon="6.199917">
        <ele>406.300000</ele>
        <time>2009-07-19T18:50:22Z</time>
      </trkpt>
      <trkpt lat="50.656565" lon="6.200113">
        <ele>405.800000</ele>
        <time>2009-07-19T18:50:39Z</time>
      </trkpt>
      <trkpt lat="50.656742" lon="6.200359">
        <ele>405.800000</ele>
        <time>2009-07-19T18:51:02Z</time>
      </trkpt>
      <trkpt lat="50.656929" lon="6.200635">
        <ele>405.800000</ele>
        <time>2009-07-19T18:51:28Z</time>
      </trkpt>
      <trkpt lat="50.657034" lon="6.200814">
        <ele>405.300000</ele>
        <time>2009-07-19T18:51:43Z</time>
      </trkpt>
      <trkpt lat="50.657072" lon="6.200886">
        <ele>406.800000</ele>
        <time>2009-07-19T18:51:49Z</time>
      </trkpt>
      <trkpt lat="50.657062" lon="6.200916">
        <ele>405.300000</ele>
        <time>2009-07-19T18:51:51Z</time>
      </trkpt>
      <trkpt lat="50.657010" lon="6.201076">
        <ele>404.400000</ele>
        <time>2009-07-19T18:52:03Z</time>
      </trkpt>
      <trkpt lat="50.657016" lon="6.201281">
        <ele>403.900000</ele>
        <time>2009-07-19T18:52:16Z</time>
      </trkpt>
      <trkpt lat="50.657086" lon="6.201518">
        <ele>402.900000</ele>
        <time>2009-07-19T18:52:32Z</time>
      </trkpt>
      <trkpt lat="50.657127" lon="6.201669">
        <ele>402.400000</ele>
        <time>2009-07-19T18:52:43Z</time>
      </trkpt>
      <trkpt lat="50.657134" lon="6.201755">
        <ele>402.900000</ele>
        <time>2009-07-19T18:52:48Z</time>
      </trkpt>
      <trkpt lat="50.657227" lon="6.202045">
        <ele>402.400000</ele>
        <time>2009-07-19T18:53:09Z</time>
      </trkpt>
      <trkpt lat="50.657233" lon="6.202238">
        <ele>402.000000</ele>
        <time>2009-07-19T18:53:21Z</time>
      </trkpt>
      <trkpt lat="50.657238" lon="6.202283">
        <ele>401.500000</ele>
        <time>2009-07-19T18:53:24Z</time>
      </trkpt>
      <trkpt lat="50.657262" lon="6.202382">
        <ele>401.500000</ele>
        <time>2009-07-19T18:53:30Z</time>
      </trkpt>
      <trkpt lat="50.657293" lon="6.202635">
        <ele>400.000000</ele>
        <time>2009-07-19T18:53:47Z</time>
      </trkpt>
      <trkpt lat="50.657304" lon="6.202680">
        <ele>400.500000</ele>
        <time>2009-07-19T18:53:50Z</time>
      </trkpt>
      <trkpt lat="50.657317" lon="6.202740">
        <ele>400.000000</ele>
        <time>2009-07-19T18:53:54Z</time>
      </trkpt>
      <trkpt lat="50.657363" lon="6.202875">
        <ele>400.000000</ele>
        <time>2009-07-19T18:54:03Z</time>
      </trkpt>
      <trkpt lat="50.657433" lon="6.203013">
        <ele>399.600000</ele>
        <time>2009-07-19T18:54:15Z</time>
      </trkpt>
      <trkpt lat="50.657486" lon="6.203220">
        <ele>398.100000</ele>
        <time>2009-07-19T18:54:29Z</time>
      </trkpt>
      <trkpt lat="50.657603" lon="6.203376">
        <ele>397.200000</ele>
        <time>2009-07-19T18:54:44Z</time>
      </trkpt>
      <trkpt lat="50.657687" lon="6.203519">
        <ele>395.200000</ele>
        <time>2009-07-19T18:54:56Z</time>
      </trkpt>
      <trkpt lat="50.657695" lon="6.203533">
        <ele>394.800000</ele>
        <time>2009-07-19T18:54:57Z</time>
      </trkpt>
      <trkpt lat="50.657796" lon="6.203640">
        <ele>393.800000</ele>
        <time>2009-07-19T18:55:10Z</time>
      </trkpt>
      <trkpt lat="50.657883" lon="6.203731">
        <ele>392.800000</ele>
        <time>2009-07-19T18:55:20Z</time>
      </trkpt>
      <trkpt lat="50.657982" lon="6.203814">
        <ele>391.400000</ele>
        <time>2009-07-19T18:55:31Z</time>
      </trkpt>
      <trkpt lat="50.658082" lon="6.203862">
        <ele>391.400000</ele>
        <time>2009-07-19T18:55:42Z</time>
      </trkpt>
      <trkpt lat="50.658205" lon="6.203876">
        <ele>391.900000</ele>
        <time>2009-07-19T18:55:54Z</time>
      </trkpt>
      <trkpt lat="50.658211" lon="6.203883">
        <ele>391.900000</ele>
        <time>2009-07-19T18:55:55Z</time>
      </trkpt>
      <trkpt lat="50.658291" lon="6.203907">
        <ele>391.900000</ele>
        <time>2009-07-19T18:56:03Z</time>
      </trkpt>
      <trkpt lat="50.658423" lon="6.203902">
        <ele>391.400000</ele>
        <time>2009-07-19T18:56:16Z</time>
      </trkpt>
      <trkpt lat="50.658545" lon="6.203913">
        <ele>391.400000</ele>
        <time>2009-07-19T18:56:28Z</time>
      </trkpt>
      <trkpt lat="50.658682" lon="6.203914">
        <ele>392.800000</ele>
        <time>2009-07-19T18:56:42Z</time>
      </trkpt>
      <trkpt lat="50.658697" lon="6.203922">
        <ele>392.400000</ele>
        <time>2009-07-19T18:56:43Z</time>
      </trkpt>
      <trkpt lat="50.658862" lon="6.203950">
        <ele>390.900000</ele>
        <time>2009-07-19T18:57:00Z</time>
      </trkpt>
      <trkpt lat="50.659005" lon="6.204035">
        <ele>390.000000</ele>
        <time>2009-07-19T18:57:15Z</time>
      </trkpt>
      <trkpt lat="50.659151" lon="6.204124">
        <ele>388.000000</ele>
        <time>2009-07-19T18:57:31Z</time>
      </trkpt>
      <trkpt lat="50.659337" lon="6.204200">
        <ele>386.600000</ele>
        <time>2009-07-19T18:57:50Z</time>
      </trkpt>
      <trkpt lat="50.659402" lon="6.204204">
        <ele>386.100000</ele>
        <time>2009-07-19T18:57:56Z</time>
      </trkpt>
      <trkpt lat="50.659577" lon="6.204183">
        <ele>384.700000</ele>
        <time>2009-07-19T18:58:14Z</time>
      </trkpt>
      <trkpt lat="50.659762" lon="6.204171">
        <ele>384.200000</ele>
        <time>2009-07-19T18:58:32Z</time>
      </trkpt>
      <trkpt lat="50.659956" lon="6.204067">
        <ele>383.700000</ele>
        <time>2009-07-19T18:58:53Z</time>
      </trkpt>
      <trkpt lat="50.660160" lon="6.203990">
        <ele>381.800000</ele>
        <time>2009-07-19T18:59:14Z</time>
      </trkpt>
      <trkpt lat="50.660350" lon="6.203807">
        <ele>380.800000</ele>
        <time>2009-07-19T18:59:36Z</time>
      </trkpt>
      <trkpt lat="50.660490" lon="6.203545">
        <ele>380.300000</ele>
        <time>2009-07-19T18:59:58Z</time>
      </trkpt>
      <trkpt lat="50.660527" lon="6.203511">
        <ele>380.300000</ele>
        <time>2009-07-19T19:00:02Z</time>
      </trkpt>
      <trkpt lat="50.660557" lon="6.203456">
        <ele>380.300000</ele>
        <time>2009-07-19T19:00:06Z</time>
      </trkpt>
      <trkpt lat="50.660661" lon="6.203237">
        <ele>379.400000</ele>
        <time>2009-07-19T19:00:24Z</time>
      </trkpt>
      <trkpt lat="50.660755" lon="6.203028">
        <ele>379.900000</ele>
        <time>2009-07-19T19:00:40Z</time>
      </trkpt>
      <trkpt lat="50.660875" lon="6.202782">
        <ele>379.400000</ele>
        <time>2009-07-19T19:00:59Z</time>
      </trkpt>
      <trkpt lat="50.661036" lon="6.202673">
        <ele>377.500000</ele>
        <time>2009-07-19T19:01:17Z</time>
      </trkpt>
      <trkpt lat="50.661217" lon="6.202524">
        <ele>375.100000</ele>
        <time>2009-07-19T19:01:37Z</time>
      </trkpt>
      <trkpt lat="50.661415" lon="6.202324">
        <ele>373.100000</ele>
        <time>2009-07-19T19:02:01Z</time>
      </trkpt>
      <trkpt lat="50.661569" lon="6.202092">
        <ele>372.600000</ele>
        <time>2009-07-19T19:02:22Z</time>
      </trkpt>
      <trkpt lat="50.661698" lon="6.201915">
        <ele>372.200000</ele>
        <time>2009-07-19T19:02:39Z</time>
      </trkpt>
      <trkpt lat="50.661800" lon="6.201770">
        <ele>371.200000</ele>
        <time>2009-07-19T19:02:53Z</time>
      </trkpt>
      <trkpt lat="50.661894" lon="6.201639">
        <ele>371.200000</ele>
        <time>2009-07-19T19:03:05Z</time>
      </trkpt>
      <trkpt lat="50.662042" lon="6.201380">
        <ele>371.200000</ele>
        <time>2009-07-19T19:03:27Z</time>
      </trkpt>
      <trkpt lat="50.662113" lon="6.201261">
        <ele>370.700000</ele>
        <time>2009-07-19T19:03:38Z</time>
      </trkpt>
      <trkpt lat="50.662183" lon="6.201123">
        <ele>370.200000</ele>
        <time>2009-07-19T19:03:49Z</time>
      </trkpt>
      <trkpt lat="50.662232" lon="6.200963">
        <ele>369.800000</ele>
        <time>2009-07-19T19:04:00Z</time>
      </trkpt>
      <trkpt lat="50.662262" lon="6.200914">
        <ele>369.800000</ele>
        <time>2009-07-19T19:04:04Z</time>
      </trkpt>
      <trkpt lat="50.662295" lon="6.200806">
        <ele>369.300000</ele>
        <time>2009-07-19T19:04:12Z</time>
      </trkpt>
      <trkpt lat="50.662328" lon="6.200758">
        <ele>370.200000</ele>
        <time>2009-07-19T19:04:16Z</time>
      </trkpt>
      <trkpt lat="50.662492" lon="6.200479">
        <ele>371.200000</ele>
        <time>2009-07-19T19:04:40Z</time>
      </trkpt>
      <trkpt lat="50.662621" lon="6.200233">
        <ele>372.600000</ele>
        <time>2009-07-19T19:05:01Z</time>
      </trkpt>
      <trkpt lat="50.662786" lon="6.200072">
        <ele>374.100000</ele>
        <time>2009-07-19T19:05:20Z</time>
      </trkpt>
      <trkpt lat="50.662919" lon="6.199857">
        <ele>376.000000</ele>
        <time>2009-07-19T19:05:39Z</time>
      </trkpt>
      <trkpt lat="50.663054" lon="6.199731">
        <ele>376.500000</ele>
        <time>2009-07-19T19:05:55Z</time>
      </trkpt>
      <trkpt lat="50.663165" lon="6.199653">
        <ele>377.500000</ele>
        <time>2009-07-19T19:06:07Z</time>
      </trkpt>
      <trkpt lat="50.663223" lon="6.199625">
        <ele>377.500000</ele>
        <time>2009-07-19T19:06:13Z</time>
      </trkpt>
      <trkpt lat="50.663367" lon="6.199502">
        <ele>378.900000</ele>
        <time>2009-07-19T19:06:29Z</time>
      </trkpt>
      <trkpt lat="50.663447" lon="6.199378">
        <ele>377.900000</ele>
        <time>2009-07-19T19:06:40Z</time>
      </trkpt>
      <trkpt lat="50.663585" lon="6.199359">
        <ele>377.500000</ele>
        <time>2009-07-19T19:06:54Z</time>
      </trkpt>
      <trkpt lat="50.663685" lon="6.199316">
        <ele>377.000000</ele>
        <time>2009-07-19T19:07:04Z</time>
      </trkpt>
      <trkpt lat="50.663822" lon="6.199247">
        <ele>376.500000</ele>
        <time>2009-07-19T19:07:19Z</time>
      </trkpt>
      <trkpt lat="50.663966" lon="6.199117">
        <ele>375.500000</ele>
        <time>2009-07-19T19:07:35Z</time>
      </trkpt>
      <trkpt lat="50.664099" lon="6.198984">
        <ele>375.100000</ele>
        <time>2009-07-19T19:07:51Z</time>
      </trkpt>
      <trkpt lat="50.664234" lon="6.198862">
        <ele>373.600000</ele>
        <time>2009-07-19T19:08:06Z</time>
      </trkpt>
      <trkpt lat="50.664327" lon="6.198772">
        <ele>373.100000</ele>
        <time>2009-07-19T19:08:17Z</time>
      </trkpt>
      <trkpt lat="50.664459" lon="6.198614">
        <ele>373.100000</ele>
        <time>2009-07-19T19:08:34Z</time>
      </trkpt>
      <trkpt lat="50.664502" lon="6.198527">
        <ele>372.600000</ele>
        <time>2009-07-19T19:08:41Z</time>
      </trkpt>
      <trkpt lat="50.664556" lon="6.198471">
        <ele>373.100000</ele>
        <time>2009-07-19T19:08:47Z</time>
      </trkpt>
      <trkpt lat="50.664700" lon="6.198232">
        <ele>373.600000</ele>
        <time>2009-07-19T19:09:08Z</time>
      </trkpt>
      <trkpt lat="50.664719" lon="6.198164">
        <ele>373.100000</ele>
        <time>2009-07-19T19:09:13Z</time>
      </trkpt>
      <trkpt lat="50.664833" lon="6.198009">
        <ele>372.600000</ele>
        <time>2009-07-19T19:09:28Z</time>
      </trkpt>
      <trkpt lat="50.664866" lon="6.197942">
        <ele>372.600000</ele>
        <time>2009-07-19T19:09:33Z</time>
      </trkpt>
      <trkpt lat="50.664929" lon="6.197862">
        <ele>372.600000</ele>
        <time>2009-07-19T19:09:41Z</time>
      </trkpt>
      <trkpt lat="50.664967" lon="6.197824">
        <ele>372.200000</ele>
        <time>2009-07-19T19:09:46Z</time>
      </trkpt>
      <trkpt lat="50.665114" lon="6.197680">
        <ele>371.700000</ele>
        <time>2009-07-19T19:10:03Z</time>
      </trkpt>
      <trkpt lat="50.665265" lon="6.197535">
        <ele>371.700000</ele>
        <time>2009-07-19T19:10:21Z</time>
      </trkpt>
      <trkpt lat="50.665413" lon="6.197333">
        <ele>371.700000</ele>
        <time>2009-07-19T19:10:40Z</time>
      </trkpt>
      <trkpt lat="50.665425" lon="6.197313">
        <ele>371.700000</ele>
        <time>2009-07-19T19:10:42Z</time>
      </trkpt>
      <trkpt lat="50.665496" lon="6.197240">
        <ele>372.200000</ele>
        <time>2009-07-19T19:10:50Z</time>
      </trkpt>
      <trkpt lat="50.665576" lon="6.197115">
        <ele>372.600000</ele>
        <time>2009-07-19T19:11:02Z</time>
      </trkpt>
      <trkpt lat="50.665675" lon="6.196976">
        <ele>373.100000</ele>
        <time>2009-07-19T19:11:15Z</time>
      </trkpt>
      <trkpt lat="50.665836" lon="6.196676">
        <ele>374.100000</ele>
        <time>2009-07-19T19:11:40Z</time>
      </trkpt>
      <trkpt lat="50.665950" lon="6.196478">
        <ele>375.100000</ele>
        <time>2009-07-19T19:11:56Z</time>
      </trkpt>
      <trkpt lat="50.666036" lon="6.196316">
        <ele>375.100000</ele>
        <time>2009-07-19T19:12:10Z</time>
      </trkpt>
      <trkpt lat="50.666169" lon="6.196049">
        <ele>375.500000</ele>
        <time>2009-07-19T19:12:31Z</time>
      </trkpt>
      <trkpt lat="50.666291" lon="6.195847">
        <ele>376.500000</ele>
        <time>2009-07-19T19:12:49Z</time>
      </trkpt>
      <trkpt lat="50.666427" lon="6.195677">
        <ele>377.500000</ele>
        <time>2009-07-19T19:13:06Z</time>
      </trkpt>
      <trkpt lat="50.666566" lon="6.195485">
        <ele>378.400000</ele>
        <time>2009-07-19T19:13:25Z</time>
      </trkpt>
      <trkpt lat="50.666705" lon="6.195322">
        <ele>379.400000</ele>
        <time>2009-07-19T19:13:42Z</time>
      </trkpt>
      <trkpt lat="50.666862" lon="6.195129">
        <ele>380.300000</ele>
        <time>2009-07-19T19:14:02Z</time>
      </trkpt>
      <trkpt lat="50.666941" lon="6.195022">
        <ele>380.300000</ele>
        <time>2009-07-19T19:14:12Z</time>
      </trkpt>
      <trkpt lat="50.667056" lon="6.194851">
        <ele>380.800000</ele>
        <time>2009-07-19T19:14:28Z</time>
      </trkpt>
      <trkpt lat="50.667200" lon="6.194741">
        <ele>382.300000</ele>
        <time>2009-07-19T19:14:44Z</time>
      </trkpt>
      <trkpt lat="50.667324" lon="6.194566">
        <ele>382.700000</ele>
        <time>2009-07-19T19:15:00Z</time>
      </trkpt>
      <trkpt lat="50.667345" lon="6.194557">
        <ele>383.200000</ele>
        <time>2009-07-19T19:15:03Z</time>
      </trkpt>
      <trkpt lat="50.667449" lon="6.194458">
        <ele>384.200000</ele>
        <time>2009-07-19T19:15:15Z</time>
      </trkpt>
      <trkpt lat="50.667570" lon="6.194325">
        <ele>384.700000</ele>
        <time>2009-07-19T19:15:29Z</time>
      </trkpt>
      <trkpt lat="50.667681" lon="6.194210">
        <ele>385.600000</ele>
        <time>2009-07-19T19:15:43Z</time>
      </trkpt>
      <trkpt lat="50.667760" lon="6.194055">
        <ele>386.600000</ele>
        <time>2009-07-19T19:15:55Z</time>
      </trkpt>
      <trkpt lat="50.667826" lon="6.193894">
        <ele>386.100000</ele>
        <time>2009-07-19T19:16:07Z</time>
      </trkpt>
      <trkpt lat="50.667879" lon="6.193758">
        <ele>386.600000</ele>
        <time>2009-07-19T19:16:17Z</time>
      </trkpt>
      <trkpt lat="50.667892" lon="6.193713">
        <ele>387.100000</ele>
        <time>2009-07-19T19:16:21Z</time>
      </trkpt>
      <trkpt lat="50.667954" lon="6.193407">
        <ele>388.500000</ele>
        <time>2009-07-19T19:16:41Z</time>
      </trkpt>
      <trkpt lat="50.667964" lon="6.193378">
        <ele>388.500000</ele>
        <time>2009-07-19T19:16:43Z</time>
      </trkpt>
      <trkpt lat="50.668002" lon="6.193092">
        <ele>389.500000</ele>
        <time>2009-07-19T19:17:01Z</time>
      </trkpt>
      <trkpt lat="50.668005" lon="6.193066">
        <ele>389.000000</ele>
        <time>2009-07-19T19:17:03Z</time>
      </trkpt>
      <trkpt lat="50.667999" lon="6.192795">
        <ele>389.500000</ele>
        <time>2009-07-19T19:17:20Z</time>
      </trkpt>
      <trkpt lat="50.667993" lon="6.192629">
        <ele>389.500000</ele>
        <time>2009-07-19T19:17:31Z</time>
      </trkpt>
      <trkpt lat="50.668006" lon="6.192356">
        <ele>390.900000</ele>
        <time>2009-07-19T19:17:48Z</time>
      </trkpt>
      <trkpt lat="50.668008" lon="6.192303">
        <ele>390.000000</ele>
        <time>2009-07-19T19:17:51Z</time>
      </trkpt>
      <trkpt lat="50.668056" lon="6.192227">
        <ele>389.500000</ele>
        <time>2009-07-19T19:17:58Z</time>
      </trkpt>
      <trkpt lat="50.668161" lon="6.192193">
        <ele>389.500000</ele>
        <time>2009-07-19T19:18:09Z</time>
      </trkpt>
      <trkpt lat="50.668244" lon="6.192160">
        <ele>390.000000</ele>
        <time>2009-07-19T19:18:17Z</time>
      </trkpt>
      <trkpt lat="50.668347" lon="6.192124">
        <ele>389.000000</ele>
        <time>2009-07-19T19:18:28Z</time>
      </trkpt>
      <trkpt lat="50.668507" lon="6.192075">
        <ele>389.000000</ele>
        <time>2009-07-19T19:18:44Z</time>
      </trkpt>
      <trkpt lat="50.668658" lon="6.192029">
        <ele>387.500000</ele>
        <time>2009-07-19T19:19:00Z</time>
      </trkpt>
      <trkpt lat="50.668861" lon="6.191974">
        <ele>387.100000</ele>
        <time>2009-07-19T19:19:20Z</time>
      </trkpt>
      <trkpt lat="50.668954" lon="6.191821">
        <ele>387.500000</ele>
        <time>2009-07-19T19:19:33Z</time>
      </trkpt>
      <trkpt lat="50.669010" lon="6.191703">
        <ele>388.500000</ele>
        <time>2009-07-19T19:19:43Z</time>
      </trkpt>
      <trkpt lat="50.669131" lon="6.191634">
        <ele>388.500000</ele>
        <time>2009-07-19T19:19:56Z</time>
      </trkpt>
      <trkpt lat="50.669217" lon="6.191696">
        <ele>387.100000</ele>
        <time>2009-07-19T19:20:05Z</time>
      </trkpt>
      <trkpt lat="50.669295" lon="6.191744">
        <ele>386.600000</ele>
        <time>2009-07-19T19:20:13Z</time>
      </trkpt>
      <trkpt lat="50.669379" lon="6.191736">
        <ele>386.600000</ele>
        <time>2009-07-19T19:20:22Z</time>
      </trkpt>
      <trkpt lat="50.669486" lon="6.191761">
        <ele>385.600000</ele>
        <time>2009-07-19T19:20:33Z</time>
      </trkpt>
      <trkpt lat="50.669461" lon="6.191770">
        <ele>386.600000</ele>
        <time>2009-07-19T19:20:35Z</time>
      </trkpt>
      <trkpt lat="50.669823" lon="6.191516">
        <ele>374.600000</ele>
        <time>2009-07-19T19:21:15Z</time>
      </trkpt>
      <trkpt lat="50.669905" lon="6.191550">
        <ele>373.100000</ele>
        <time>2009-07-19T19:21:23Z</time>
      </trkpt>
      <trkpt lat="50.670010" lon="6.191556">
        <ele>372.600000</ele>
        <time>2009-07-19T19:21:33Z</time>
      </trkpt>
      <trkpt lat="50.670082" lon="6.191591">
        <ele>373.600000</ele>
        <time>2009-07-19T19:21:41Z</time>
      </trkpt>
      <trkpt lat="50.670197" lon="6.191527">
        <ele>373.600000</ele>
        <time>2009-07-19T19:21:53Z</time>
      </trkpt>
      <trkpt lat="50.670277" lon="6.191446">
        <ele>373.100000</ele>
        <time>2009-07-19T19:22:03Z</time>
      </trkpt>
      <trkpt lat="50.670388" lon="6.191397">
        <ele>372.200000</ele>
        <time>2009-07-19T19:22:14Z</time>
      </trkpt>
      <trkpt lat="50.670419" lon="6.191382">
        <ele>372.600000</ele>
        <time>2009-07-19T19:22:17Z</time>
      </trkpt>
      <trkpt lat="50.670555" lon="6.191363">
        <ele>371.200000</ele>
        <time>2009-07-19T19:22:31Z</time>
      </trkpt>
      <trkpt lat="50.670687" lon="6.191308">
        <ele>370.700000</ele>
        <time>2009-07-19T19:22:44Z</time>
      </trkpt>
      <trkpt lat="50.670708" lon="6.191295">
        <ele>370.700000</ele>
        <time>2009-07-19T19:22:47Z</time>
      </trkpt>
      <trkpt lat="50.670848" lon="6.191242">
        <ele>370.200000</ele>
        <time>2009-07-19T19:23:01Z</time>
      </trkpt>
      <trkpt lat="50.670968" lon="6.191199">
        <ele>370.200000</ele>
        <time>2009-07-19T19:23:13Z</time>
      </trkpt>
      <trkpt lat="50.671111" lon="6.191170">
        <ele>369.300000</ele>
        <time>2009-07-19T19:23:28Z</time>
      </trkpt>
      <trkpt lat="50.671280" lon="6.191102">
        <ele>368.300000</ele>
        <time>2009-07-19T19:23:45Z</time>
      </trkpt>
      <trkpt lat="50.671404" lon="6.191073">
        <ele>367.800000</ele>
        <time>2009-07-19T19:23:58Z</time>
      </trkpt>
      <trkpt lat="50.671544" lon="6.190971">
        <ele>367.800000</ele>
        <time>2009-07-19T19:24:13Z</time>
      </trkpt>
      <trkpt lat="50.671643" lon="6.190961">
        <ele>366.400000</ele>
        <time>2009-07-19T19:24:23Z</time>
      </trkpt>
      <trkpt lat="50.671792" lon="6.190914">
        <ele>365.900000</ele>
        <time>2009-07-19T19:24:38Z</time>
      </trkpt>
      <trkpt lat="50.671909" lon="6.190763">
        <ele>365.900000</ele>
        <time>2009-07-19T19:24:53Z</time>
      </trkpt>
      <trkpt lat="50.671988" lon="6.190779">
        <ele>365.400000</ele>
        <time>2009-07-19T19:25:01Z</time>
      </trkpt>
      <trkpt lat="50.672102" lon="6.190750">
        <ele>365.000000</ele>
        <time>2009-07-19T19:25:13Z</time>
      </trkpt>
      <trkpt lat="50.672163" lon="6.190709">
        <ele>365.000000</ele>
        <time>2009-07-19T19:25:19Z</time>
      </trkpt>
      <trkpt lat="50.672233" lon="6.190682">
        <ele>365.000000</ele>
        <time>2009-07-19T19:25:26Z</time>
      </trkpt>
      <trkpt lat="50.672324" lon="6.190677">
        <ele>364.500000</ele>
        <time>2009-07-19T19:25:35Z</time>
      </trkpt>
      <trkpt lat="50.672392" lon="6.190652">
        <ele>365.900000</ele>
        <time>2009-07-19T19:25:42Z</time>
      </trkpt>
      <trkpt lat="50.672557" lon="6.190587">
        <ele>364.500000</ele>
        <time>2009-07-19T19:25:59Z</time>
      </trkpt>
      <trkpt lat="50.672613" lon="6.190626">
        <ele>364.500000</ele>
        <time>2009-07-19T19:26:05Z</time>
      </trkpt>
      <trkpt lat="50.672671" lon="6.190567">
        <ele>363.000000</ele>
        <time>2009-07-19T19:26:12Z</time>
      </trkpt>
      <trkpt lat="50.672773" lon="6.190444">
        <ele>363.000000</ele>
        <time>2009-07-19T19:26:25Z</time>
      </trkpt>
      <trkpt lat="50.672847" lon="6.190413">
        <ele>363.000000</ele>
        <time>2009-07-19T19:26:33Z</time>
      </trkpt>
      <trkpt lat="50.672942" lon="6.190417">
        <ele>362.600000</ele>
        <time>2009-07-19T19:26:42Z</time>
      </trkpt>
      <trkpt lat="50.672990" lon="6.190393">
        <ele>362.600000</ele>
        <time>2009-07-19T19:26:47Z</time>
      </trkpt>
      <trkpt lat="50.673098" lon="6.190339">
        <ele>361.600000</ele>
        <time>2009-07-19T19:26:58Z</time>
      </trkpt>
      <trkpt lat="50.673208" lon="6.190350">
        <ele>360.600000</ele>
        <time>2009-07-19T19:27:10Z</time>
      </trkpt>
      <trkpt lat="50.673276" lon="6.190328">
        <ele>360.600000</ele>
        <time>2009-07-19T19:27:16Z</time>
      </trkpt>
      <trkpt lat="50.673393" lon="6.190173">
        <ele>360.600000</ele>
        <time>2009-07-19T19:27:32Z</time>
      </trkpt>
      <trkpt lat="50.673517" lon="6.190182">
        <ele>359.700000</ele>
        <time>2009-07-19T19:27:44Z</time>
      </trkpt>
      <trkpt lat="50.673614" lon="6.190150">
        <ele>359.200000</ele>
        <time>2009-07-19T19:27:54Z</time>
      </trkpt>
      <trkpt lat="50.673656" lon="6.190130">
        <ele>358.700000</ele>
        <time>2009-07-19T19:27:58Z</time>
      </trkpt>
      <trkpt lat="50.673673" lon="6.189957">
        <ele>358.700000</ele>
        <time>2009-07-19T19:28:09Z</time>
      </trkpt>
      <trkpt lat="50.673715" lon="6.189945">
        <ele>358.700000</ele>
        <time>2009-07-19T19:28:14Z</time>
      </trkpt>
      <trkpt lat="50.673778" lon="6.189885">
        <ele>357.700000</ele>
        <time>2009-07-19T19:28:21Z</time>
      </trkpt>
      <trkpt lat="50.673849" lon="6.189831">
        <ele>357.300000</ele>
        <time>2009-07-19T19:28:29Z</time>
      </trkpt>
      <trkpt lat="50.673936" lon="6.189719">
        <ele>355.800000</ele>
        <time>2009-07-19T19:28:40Z</time>
      </trkpt>
      <trkpt lat="50.673999" lon="6.189688">
        <ele>354.900000</ele>
        <time>2009-07-19T19:28:47Z</time>
      </trkpt>
      <trkpt lat="50.674060" lon="6.189662">
        <ele>354.400000</ele>
        <time>2009-07-19T19:28:53Z</time>
      </trkpt>
      <trkpt lat="50.674151" lon="6.189556">
        <ele>353.400000</ele>
        <time>2009-07-19T19:29:04Z</time>
      </trkpt>
      <trkpt lat="50.674226" lon="6.189484">
        <ele>353.400000</ele>
        <time>2009-07-19T19:29:13Z</time>
      </trkpt>
      <trkpt lat="50.674350" lon="6.189326">
        <ele>352.900000</ele>
        <time>2009-07-19T19:29:29Z</time>
      </trkpt>
      <trkpt lat="50.674363" lon="6.189318">
        <ele>352.900000</ele>
        <time>2009-07-19T19:29:30Z</time>
      </trkpt>
      <trkpt lat="50.674440" lon="6.189368">
        <ele>352.000000</ele>
        <time>2009-07-19T19:29:39Z</time>
      </trkpt>
      <trkpt lat="50.674585" lon="6.189361">
        <ele>351.000000</ele>
        <time>2009-07-19T19:29:53Z</time>
      </trkpt>
      <trkpt lat="50.674611" lon="6.189356">
        <ele>350.500000</ele>
        <time>2009-07-19T19:29:56Z</time>
      </trkpt>
      <trkpt lat="50.674653" lon="6.189342">
        <ele>351.000000</ele>
        <time>2009-07-19T19:30:00Z</time>
      </trkpt>
      <trkpt lat="50.674768" lon="6.189275">
        <ele>350.100000</ele>
        <time>2009-07-19T19:30:12Z</time>
      </trkpt>
      <trkpt lat="50.674844" lon="6.189226">
        <ele>350.100000</ele>
        <time>2009-07-19T19:30:20Z</time>
      </trkpt>
      <trkpt lat="50.674934" lon="6.189173">
        <ele>348.600000</ele>
        <time>2009-07-19T19:30:30Z</time>
      </trkpt>
      <trkpt lat="50.675047" lon="6.189052">
        <ele>348.600000</ele>
        <time>2009-07-19T19:30:44Z</time>
      </trkpt>
      <trkpt lat="50.675131" lon="6.189031">
        <ele>348.100000</ele>
        <time>2009-07-19T19:30:52Z</time>
      </trkpt>
      <trkpt lat="50.675208" lon="6.188931">
        <ele>348.100000</ele>
        <time>2009-07-19T19:31:02Z</time>
      </trkpt>
      <trkpt lat="50.675297" lon="6.188857">
        <ele>347.700000</ele>
        <time>2009-07-19T19:31:12Z</time>
      </trkpt>
      <trkpt lat="50.675319" lon="6.188835">
        <ele>347.700000</ele>
        <time>2009-07-19T19:31:15Z</time>
      </trkpt>
      <trkpt lat="50.675393" lon="6.188823">
        <ele>348.100000</ele>
        <time>2009-07-19T19:31:22Z</time>
      </trkpt>
      <trkpt lat="50.675422" lon="6.188957">
        <ele>348.100000</ele>
        <time>2009-07-19T19:31:31Z</time>
      </trkpt>
      <trkpt lat="50.675504" lon="6.189105">
        <ele>350.100000</ele>
        <time>2009-07-19T19:31:43Z</time>
      </trkpt>
      <trkpt lat="50.675532" lon="6.189000">
        <ele>349.100000</ele>
        <time>2009-07-19T19:31:51Z</time>
      </trkpt>
      <trkpt lat="50.675557" lon="6.188949">
        <ele>352.900000</ele>
        <time>2009-07-19T19:31:55Z</time>
      </trkpt>
      <trkpt lat="50.675559" lon="6.188946">
        <ele>352.900000</ele>
        <time>2009-07-19T19:31:55Z</time>
      </trkpt>
      <trkpt lat="50.675561" lon="6.188946">
        <ele>347.700000</ele>
        <time>2009-07-19T19:31:55Z</time>
      </trkpt>
      <trkpt lat="50.675563" lon="6.188945">
        <ele>352.500000</ele>
        <time>2009-07-19T19:31:55Z</time>
      </trkpt>
      <trkpt lat="50.675565" lon="6.188945">
        <ele>345.300000</ele>
        <time>2009-07-19T19:31:55Z</time>
      </trkpt>
      <trkpt lat="50.675568" lon="6.188944">
        <ele>349.100000</ele>
        <time>2009-07-19T19:31:56Z</time>
      </trkpt>
      <trkpt lat="50.675571" lon="6.188943">
        <ele>350.500000</ele>
        <time>2009-07-19T19:31:56Z</time>
      </trkpt>
      <trkpt lat="50.675528" lon="6.188870">
        <ele>345.300000</ele>
        <time>2009-07-19T19:32:02Z</time>
      </trkpt>
      <trkpt lat="50.675528" lon="6.188869">
        <ele>354.400000</ele>
        <time>2009-07-19T19:32:03Z</time>
      </trkpt>
      <trkpt lat="50.675528" lon="6.188869">
        <ele>350.100000</ele>
        <time>2009-07-19T19:32:03Z</time>
      </trkpt>
      <trkpt lat="50.675576" lon="6.188957">
        <ele>349.600000</ele>
        <time>2009-07-19T19:32:10Z</time>
      </trkpt>
      <trkpt lat="50.675581" lon="6.188975">
        <ele>349.100000</ele>
        <time>2009-07-19T19:32:11Z</time>
      </trkpt>
      <trkpt lat="50.675670" lon="6.188991">
        <ele>349.600000</ele>
        <time>2009-07-19T19:32:20Z</time>
      </trkpt>
      <trkpt lat="50.675697" lon="6.189036">
        <ele>350.500000</ele>
        <time>2009-07-19T19:32:24Z</time>
      </trkpt>
      <trkpt lat="50.675694" lon="6.189045">
        <ele>351.000000</ele>
        <time>2009-07-19T19:32:25Z</time>
      </trkpt>
      <trkpt lat="50.675681" lon="6.189012">
        <ele>350.100000</ele>
        <time>2009-07-19T19:32:27Z</time>
      </trkpt>
      <trkpt lat="50.675707" lon="6.188937">
        <ele>349.600000</ele>
        <time>2009-07-19T19:32:33Z</time>
      </trkpt>
      <trkpt lat="50.675715" lon="6.188941">
        <ele>349.600000</ele>
        <time>2009-07-19T19:32:33Z</time>
      </trkpt>
      <trkpt lat="50.675746" lon="6.188879">
        <ele>349.600000</ele>
        <time>2009-07-19T19:32:38Z</time>
      </trkpt>
      <trkpt lat="50.675816" lon="6.188690">
        <ele>350.100000</ele>
        <time>2009-07-19T19:32:52Z</time>
      </trkpt>
      <trkpt lat="50.675894" lon="6.188482">
        <ele>349.600000</ele>
        <time>2009-07-19T19:33:08Z</time>
      </trkpt>
      <trkpt lat="50.675898" lon="6.188460">
        <ele>349.600000</ele>
        <time>2009-07-19T19:33:09Z</time>
      </trkpt>
      <trkpt lat="50.675986" lon="6.188275">
        <ele>350.100000</ele>
        <time>2009-07-19T19:33:24Z</time>
      </trkpt>
      <trkpt lat="50.676015" lon="6.188117">
        <ele>352.000000</ele>
        <time>2009-07-19T19:33:34Z</time>
      </trkpt>
      <trkpt lat="50.676074" lon="6.188010">
        <ele>353.400000</ele>
        <time>2009-07-19T19:33:43Z</time>
      </trkpt>
      <trkpt lat="50.676202" lon="6.187826">
        <ele>353.900000</ele>
        <time>2009-07-19T19:34:00Z</time>
      </trkpt>
      <trkpt lat="50.676265" lon="6.187700">
        <ele>352.500000</ele>
        <time>2009-07-19T19:34:10Z</time>
      </trkpt>
      <trkpt lat="50.676319" lon="6.187677">
        <ele>352.000000</ele>
        <time>2009-07-19T19:34:16Z</time>
      </trkpt>
      <trkpt lat="50.676381" lon="6.187615">
        <ele>351.500000</ele>
        <time>2009-07-19T19:34:23Z</time>
      </trkpt>
      <trkpt lat="50.676514" lon="6.187469">
        <ele>349.100000</ele>
        <time>2009-07-19T19:34:39Z</time>
      </trkpt>
      <trkpt lat="50.676579" lon="6.187349">
        <ele>347.700000</ele>
        <time>2009-07-19T19:34:49Z</time>
      </trkpt>
      <trkpt lat="50.676627" lon="6.187265">
        <ele>346.200000</ele>
        <time>2009-07-19T19:34:57Z</time>
      </trkpt>
      <trkpt lat="50.676739" lon="6.187131">
        <ele>344.800000</ele>
        <time>2009-07-19T19:35:11Z</time>
      </trkpt>
      <trkpt lat="50.676785" lon="6.187054">
        <ele>343.800000</ele>
        <time>2009-07-19T19:35:17Z</time>
      </trkpt>
      <trkpt lat="50.676859" lon="6.186983">
        <ele>343.800000</ele>
        <time>2009-07-19T19:35:26Z</time>
      </trkpt>
      <trkpt lat="50.676983" lon="6.186893">
        <ele>343.300000</ele>
        <time>2009-07-19T19:35:39Z</time>
      </trkpt>
      <trkpt lat="50.677121" lon="6.186702">
        <ele>342.800000</ele>
        <time>2009-07-19T19:35:58Z</time>
      </trkpt>
      <trkpt lat="50.677230" lon="6.186571">
        <ele>342.800000</ele>
        <time>2009-07-19T19:36:12Z</time>
      </trkpt>
      <trkpt lat="50.677377" lon="6.186415">
        <ele>341.900000</ele>
        <time>2009-07-19T19:36:29Z</time>
      </trkpt>
      <trkpt lat="50.677490" lon="6.186259">
        <ele>341.900000</ele>
        <time>2009-07-19T19:36:44Z</time>
      </trkpt>
      <trkpt lat="50.677611" lon="6.186142">
        <ele>341.900000</ele>
        <time>2009-07-19T19:36:58Z</time>
      </trkpt>
      <trkpt lat="50.677640" lon="6.186121">
        <ele>341.400000</ele>
        <time>2009-07-19T19:37:02Z</time>
      </trkpt>
      <trkpt lat="50.677738" lon="6.186031">
        <ele>341.400000</ele>
        <time>2009-07-19T19:37:13Z</time>
      </trkpt>
      <trkpt lat="50.677845" lon="6.185954">
        <ele>342.400000</ele>
        <time>2009-07-19T19:37:24Z</time>
      </trkpt>
      <trkpt lat="50.677905" lon="6.185875">
        <ele>342.800000</ele>
        <time>2009-07-19T19:37:32Z</time>
      </trkpt>
      <trkpt lat="50.677993" lon="6.185793">
        <ele>343.300000</ele>
        <time>2009-07-19T19:37:42Z</time>
      </trkpt>
      <trkpt lat="50.678109" lon="6.185691">
        <ele>341.400000</ele>
        <time>2009-07-19T19:37:56Z</time>
      </trkpt>
      <trkpt lat="50.678192" lon="6.185605">
        <ele>340.400000</ele>
        <time>2009-07-19T19:38:06Z</time>
      </trkpt>
      <trkpt lat="50.678210" lon="6.185564">
        <ele>340.000000</ele>
        <time>2009-07-19T19:38:09Z</time>
      </trkpt>
      <trkpt lat="50.678258" lon="6.185520">
        <ele>340.000000</ele>
        <time>2009-07-19T19:38:14Z</time>
      </trkpt>
      <trkpt lat="50.678401" lon="6.185294">
        <ele>341.400000</ele>
        <time>2009-07-19T19:38:34Z</time>
      </trkpt>
      <trkpt lat="50.678411" lon="6.185255">
        <ele>341.400000</ele>
        <time>2009-07-19T19:38:37Z</time>
      </trkpt>
      <trkpt lat="50.678481" lon="6.184964">
        <ele>340.000000</ele>
        <time>2009-07-19T19:38:57Z</time>
      </trkpt>
      <trkpt lat="50.678518" lon="6.184901">
        <ele>340.400000</ele>
        <time>2009-07-19T19:39:02Z</time>
      </trkpt>
      <trkpt lat="50.678611" lon="6.184782">
        <ele>343.800000</ele>
        <time>2009-07-19T19:39:14Z</time>
      </trkpt>
      <trkpt lat="50.678712" lon="6.184672">
        <ele>345.300000</ele>
        <time>2009-07-19T19:39:26Z</time>
      </trkpt>
      <trkpt lat="50.678829" lon="6.184516">
        <ele>347.200000</ele>
        <time>2009-07-19T19:39:42Z</time>
      </trkpt>
      <trkpt lat="50.678958" lon="6.184389">
        <ele>347.700000</ele>
        <time>2009-07-19T19:39:57Z</time>
      </trkpt>
      <trkpt lat="50.679039" lon="6.184260">
        <ele>349.100000</ele>
        <time>2009-07-19T19:40:08Z</time>
      </trkpt>
      <trkpt lat="50.679069" lon="6.184213">
        <ele>349.600000</ele>
        <time>2009-07-19T19:40:12Z</time>
      </trkpt>
      <trkpt lat="50.679165" lon="6.184084">
        <ele>351.000000</ele>
        <time>2009-07-19T19:40:25Z</time>
      </trkpt>
      <trkpt lat="50.679278" lon="6.183918">
        <ele>352.500000</ele>
        <time>2009-07-19T19:40:41Z</time>
      </trkpt>
      <trkpt lat="50.679354" lon="6.183774">
        <ele>353.900000</ele>
        <time>2009-07-19T19:40:52Z</time>
      </trkpt>
      <trkpt lat="50.679459" lon="6.183631">
        <ele>354.900000</ele>
        <time>2009-07-19T19:41:06Z</time>
      </trkpt>
      <trkpt lat="50.679570" lon="6.183520">
        <ele>353.400000</ele>
        <time>2009-07-19T19:41:19Z</time>
      </trkpt>
      <trkpt lat="50.679610" lon="6.183437">
        <ele>352.900000</ele>
        <time>2009-07-19T19:41:26Z</time>
      </trkpt>
      <trkpt lat="50.679758" lon="6.183285">
        <ele>352.500000</ele>
        <time>2009-07-19T19:41:43Z</time>
      </trkpt>
      <trkpt lat="50.679862" lon="6.183200">
        <ele>351.500000</ele>
        <time>2009-07-19T19:41:55Z</time>
      </trkpt>
      <trkpt lat="50.679888" lon="6.183189">
        <ele>351.000000</ele>
        <time>2009-07-19T19:41:58Z</time>
      </trkpt>
      <trkpt lat="50.679984" lon="6.183094">
        <ele>351.000000</ele>
        <time>2009-07-19T19:42:09Z</time>
      </trkpt>
      <trkpt lat="50.680111" lon="6.182874">
        <ele>351.000000</ele>
        <time>2009-07-19T19:42:28Z</time>
      </trkpt>
      <trkpt lat="50.680210" lon="6.182771">
        <ele>349.100000</ele>
        <time>2009-07-19T19:42:40Z</time>
      </trkpt>
      <trkpt lat="50.680313" lon="6.182677">
        <ele>348.600000</ele>
        <time>2009-07-19T19:42:52Z</time>
      </trkpt>
      <trkpt lat="50.680332" lon="6.182650">
        <ele>348.100000</ele>
        <time>2009-07-19T19:42:54Z</time>
      </trkpt>
      <trkpt lat="50.680388" lon="6.182594">
        <ele>348.600000</ele>
        <time>2009-07-19T19:43:01Z</time>
      </trkpt>
      <trkpt lat="50.680414" lon="6.182552">
        <ele>348.100000</ele>
        <time>2009-07-19T19:43:04Z</time>
      </trkpt>
      <trkpt lat="50.680565" lon="6.182375">
        <ele>349.100000</ele>
        <time>2009-07-19T19:43:23Z</time>
      </trkpt>
      <trkpt lat="50.680666" lon="6.182267">
        <ele>349.600000</ele>
        <time>2009-07-19T19:43:35Z</time>
      </trkpt>
      <trkpt lat="50.680689" lon="6.182249">
        <ele>350.100000</ele>
        <time>2009-07-19T19:43:38Z</time>
      </trkpt>
      <trkpt lat="50.680796" lon="6.182125">
        <ele>350.500000</ele>
        <time>2009-07-19T19:43:51Z</time>
      </trkpt>
      <trkpt lat="50.680830" lon="6.182077">
        <ele>352.000000</ele>
        <time>2009-07-19T19:43:56Z</time>
      </trkpt>
      <trkpt lat="50.680903" lon="6.181995">
        <ele>351.000000</ele>
        <time>2009-07-19T19:44:05Z</time>
      </trkpt>
      <trkpt lat="50.681005" lon="6.181988">
        <ele>352.500000</ele>
        <time>2009-07-19T19:44:15Z</time>
      </trkpt>
      <trkpt lat="50.681041" lon="6.182015">
        <ele>352.900000</ele>
        <time>2009-07-19T19:44:19Z</time>
      </trkpt>
      <trkpt lat="50.681141" lon="6.182175">
        <ele>354.400000</ele>
        <time>2009-07-19T19:44:33Z</time>
      </trkpt>
      <trkpt lat="50.681238" lon="6.182308">
        <ele>355.300000</ele>
        <time>2009-07-19T19:44:46Z</time>
      </trkpt>
      <trkpt lat="50.681263" lon="6.182341">
        <ele>355.300000</ele>
        <time>2009-07-19T19:44:49Z</time>
      </trkpt>
      <trkpt lat="50.681388" lon="6.182455">
        <ele>356.800000</ele>
        <time>2009-07-19T19:45:03Z</time>
      </trkpt>
      <trkpt lat="50.681460" lon="6.182497">
        <ele>357.700000</ele>
        <time>2009-07-19T19:45:11Z</time>
      </trkpt>
      <trkpt lat="50.681557" lon="6.182536">
        <ele>357.700000</ele>
        <time>2009-07-19T19:45:21Z</time>
      </trkpt>
      <trkpt lat="50.681667" lon="6.182631">
        <ele>359.200000</ele>
        <time>2009-07-19T19:45:34Z</time>
      </trkpt>
      <trkpt lat="50.681703" lon="6.182664">
        <ele>359.700000</ele>
        <time>2009-07-19T19:45:38Z</time>
      </trkpt>
      <trkpt lat="50.681826" lon="6.182681">
        <ele>359.700000</ele>
        <time>2009-07-19T19:45:50Z</time>
      </trkpt>
      <trkpt lat="50.682036" lon="6.182585">
        <ele>357.700000</ele>
        <time>2009-07-19T19:46:12Z</time>
      </trkpt>
      <trkpt lat="50.682070" lon="6.182559">
        <ele>358.700000</ele>
        <time>2009-07-19T19:46:16Z</time>
      </trkpt>
      <trkpt lat="50.682084" lon="6.182559">
        <ele>358.200000</ele>
        <time>2009-07-19T19:46:17Z</time>
      </trkpt>
      <trkpt lat="50.682139" lon="6.182576">
        <ele>357.700000</ele>
        <time>2009-07-19T19:46:23Z</time>
      </trkpt>
      <trkpt lat="50.682255" lon="6.182633">
        <ele>357.700000</ele>
        <time>2009-07-19T19:46:35Z</time>
      </trkpt>
      <trkpt lat="50.682355" lon="6.182434">
        <ele>356.800000</ele>
        <time>2009-07-19T19:46:51Z</time>
      </trkpt>
      <trkpt lat="50.682390" lon="6.182331">
        <ele>356.300000</ele>
        <time>2009-07-19T19:46:58Z</time>
      </trkpt>
      <trkpt lat="50.682458" lon="6.182059">
        <ele>355.300000</ele>
        <time>2009-07-19T19:47:17Z</time>
      </trkpt>
      <trkpt lat="50.682570" lon="6.181759">
        <ele>354.400000</ele>
        <time>2009-07-19T19:47:39Z</time>
      </trkpt>
      <trkpt lat="50.682639" lon="6.181523">
        <ele>353.400000</ele>
        <time>2009-07-19T19:47:55Z</time>
      </trkpt>
      <trkpt lat="50.682666" lon="6.181299">
        <ele>351.000000</ele>
        <time>2009-07-19T19:48:09Z</time>
      </trkpt>
      <trkpt lat="50.682677" lon="6.181240">
        <ele>350.100000</ele>
        <time>2009-07-19T19:48:13Z</time>
      </trkpt>
      <trkpt lat="50.682651" lon="6.181043">
        <ele>350.100000</ele>
        <time>2009-07-19T19:48:26Z</time>
      </trkpt>
      <trkpt lat="50.682599" lon="6.180955">
        <ele>349.100000</ele>
        <time>2009-07-19T19:48:34Z</time>
      </trkpt>
      <trkpt lat="50.682561" lon="6.180965">
        <ele>349.600000</ele>
        <time>2009-07-19T19:48:37Z</time>
      </trkpt>
    </trkseg>
  </trk>

</gpx>
